<?xml version="1.0" encoding="UTF-8" standalone="no" ?>
<gpx xmlns="http://www.topografix.com/GPX/1/1" xmlns:xsi="http://www.w3.org/2001/XMLSchema-instance" xsi:schemaLocation="http://www.topografix.com/GPX/1/1 http://www.topografix.com/GPX/1/1/gpx.xsd" version="1.1" creator="VisuGPX - https://www.visugpx.com">
  <metadata>
    <name>VTT Perso</name>
    <desc><![CDATA[VTT Perso à Bouconne]]></desc>
  </metadata>
  <trk>
    <name><![CDATA[20130421VTTFRS]]></name>
    <trkseg>
      <trkpt lat="43.66806" lon="1.19632">
        <ele>129.446869</ele>
        <time>2013-04-21T13:46:34Z</time>
      </trkpt>
      <trkpt lat="43.66882" lon="1.19733">
        <ele>128.875244</ele>
        <time>2013-04-21T13:46:51Z</time>
      </trkpt>
      <trkpt lat="43.66938" lon="1.19824">
        <ele>129.128754</ele>
        <time>2013-04-21T13:47:07Z</time>
      </trkpt>
      <trkpt lat="43.66986" lon="1.19892">
        <ele>129.186249</ele>
        <time>2013-04-21T13:47:20Z</time>
      </trkpt>
      <trkpt lat="43.6706" lon="1.19998">
        <ele>129.300629</ele>
        <time>2013-04-21T13:47:39Z</time>
      </trkpt>
      <trkpt lat="43.67072" lon="1.20015">
        <ele>129.322495</ele>
        <time>2013-04-21T13:47:42Z</time>
      </trkpt>
      <trkpt lat="43.6713" lon="1.201">
        <ele>129.873093</ele>
        <time>2013-04-21T13:47:58Z</time>
      </trkpt>
      <trkpt lat="43.67182" lon="1.20171">
        <ele>129.786255</ele>
        <time>2013-04-21T13:48:13Z</time>
      </trkpt>
      <trkpt lat="43.67231" lon="1.20244">
        <ele>130.419647</ele>
        <time>2013-04-21T13:48:29Z</time>
      </trkpt>
      <trkpt lat="43.673" lon="1.20341">
        <ele>130.988586</ele>
        <time>2013-04-21T13:48:48Z</time>
      </trkpt>
      <trkpt lat="43.67385" lon="1.20428">
        <ele>130.012604</ele>
        <time>2013-04-21T13:49:07Z</time>
      </trkpt>
      <trkpt lat="43.67476" lon="1.20513">
        <ele>131.302887</ele>
        <time>2013-04-21T13:49:27Z</time>
      </trkpt>
      <trkpt lat="43.67571" lon="1.20607">
        <ele>130.525452</ele>
        <time>2013-04-21T13:49:48Z</time>
      </trkpt>
      <trkpt lat="43.6768" lon="1.20711">
        <ele>129.427078</ele>
        <time>2013-04-21T13:50:11Z</time>
      </trkpt>
      <trkpt lat="43.67783" lon="1.2081">
        <ele>130.418747</ele>
        <time>2013-04-21T13:50:33Z</time>
      </trkpt>
      <trkpt lat="43.67899" lon="1.20921">
        <ele>130.084991</ele>
        <time>2013-04-21T13:50:56Z</time>
      </trkpt>
      <trkpt lat="43.67994" lon="1.21014">
        <ele>129.498444</ele>
        <time>2013-04-21T13:51:15Z</time>
      </trkpt>
      <trkpt lat="43.68097" lon="1.21107">
        <ele>128.744995</ele>
        <time>2013-04-21T13:51:35Z</time>
      </trkpt>
      <trkpt lat="43.6819" lon="1.21194">
        <ele>127.13205</ele>
        <time>2013-04-21T13:51:54Z</time>
      </trkpt>
      <trkpt lat="43.68262" lon="1.21266">
        <ele>127.176872</ele>
        <time>2013-04-21T13:52:11Z</time>
      </trkpt>
      <trkpt lat="43.68351" lon="1.21356">
        <ele>128.378418</ele>
        <time>2013-04-21T13:52:31Z</time>
      </trkpt>
      <trkpt lat="43.68424" lon="1.21429">
        <ele>127.860001</ele>
        <time>2013-04-21T13:52:46Z</time>
      </trkpt>
      <trkpt lat="43.68429" lon="1.2149">
        <ele>129.669998</ele>
        <time>2013-04-21T13:52:54Z</time>
      </trkpt>
      <trkpt lat="43.68418" lon="1.2151">
        <ele>130.474838</ele>
        <time>2013-04-21T13:52:57Z</time>
      </trkpt>
      <trkpt lat="43.68349" lon="1.21599">
        <ele>135.059494</ele>
        <time>2013-04-21T13:53:15Z</time>
      </trkpt>
      <trkpt lat="43.68299" lon="1.21664">
        <ele>139.3992</ele>
        <time>2013-04-21T13:53:33Z</time>
      </trkpt>
      <trkpt lat="43.68253" lon="1.21724">
        <ele>142.133499</ele>
        <time>2013-04-21T13:53:53Z</time>
      </trkpt>
      <trkpt lat="43.68216" lon="1.21774">
        <ele>144.203979</ele>
        <time>2013-04-21T13:54:11Z</time>
      </trkpt>
      <trkpt lat="43.68189" lon="1.21818">
        <ele>146.046646</ele>
        <time>2013-04-21T13:54:28Z</time>
      </trkpt>
      <trkpt lat="43.68159" lon="1.21872">
        <ele>150.405487</ele>
        <time>2013-04-21T13:54:48Z</time>
      </trkpt>
      <trkpt lat="43.68134" lon="1.21928">
        <ele>152.209869</ele>
        <time>2013-04-21T13:55:07Z</time>
      </trkpt>
      <trkpt lat="43.68113" lon="1.21987">
        <ele>153.811935</ele>
        <time>2013-04-21T13:55:26Z</time>
      </trkpt>
      <trkpt lat="43.68089" lon="1.2206">
        <ele>154.941223</ele>
        <time>2013-04-21T13:55:44Z</time>
      </trkpt>
      <trkpt lat="43.68065" lon="1.22137">
        <ele>154.055008</ele>
        <time>2013-04-21T13:55:57Z</time>
      </trkpt>
      <trkpt lat="43.68009" lon="1.22252">
        <ele>154.177475</ele>
        <time>2013-04-21T13:56:16Z</time>
      </trkpt>
      <trkpt lat="43.67937" lon="1.22355">
        <ele>152.208755</ele>
        <time>2013-04-21T13:56:32Z</time>
      </trkpt>
      <trkpt lat="43.67838" lon="1.22448">
        <ele>146.142502</ele>
        <time>2013-04-21T13:56:48Z</time>
      </trkpt>
      <trkpt lat="43.67727" lon="1.22509">
        <ele>146.06813</ele>
        <time>2013-04-21T13:57:03Z</time>
      </trkpt>
      <trkpt lat="43.67627" lon="1.22533">
        <ele>147.981247</ele>
        <time>2013-04-21T13:57:19Z</time>
      </trkpt>
      <trkpt lat="43.67517" lon="1.22543">
        <ele>148.37233</ele>
        <time>2013-04-21T13:57:39Z</time>
      </trkpt>
      <trkpt lat="43.67462" lon="1.2255">
        <ele>149.350006</ele>
        <time>2013-04-21T13:57:49Z</time>
      </trkpt>
      <trkpt lat="43.67379" lon="1.22595">
        <ele>152.889999</ele>
        <time>2013-04-21T13:58:06Z</time>
      </trkpt>
      <trkpt lat="43.67329" lon="1.22649">
        <ele>157.208984</ele>
        <time>2013-04-21T13:58:22Z</time>
      </trkpt>
      <trkpt lat="43.67283" lon="1.22702">
        <ele>160.010742</ele>
        <time>2013-04-21T13:58:40Z</time>
      </trkpt>
      <trkpt lat="43.67223" lon="1.22767">
        <ele>162.479996</ele>
        <time>2013-04-21T13:59:00Z</time>
      </trkpt>
      <trkpt lat="43.6715" lon="1.2285">
        <ele>164.435074</ele>
        <time>2013-04-21T13:59:21Z</time>
      </trkpt>
      <trkpt lat="43.67065" lon="1.22947">
        <ele>164.834183</ele>
        <time>2013-04-21T13:59:43Z</time>
      </trkpt>
      <trkpt lat="43.66986" lon="1.23039">
        <ele>166.580505</ele>
        <time>2013-04-21T14:00:02Z</time>
      </trkpt>
      <trkpt lat="43.66975" lon="1.23054">
        <ele>167.062393</ele>
        <time>2013-04-21T14:00:05Z</time>
      </trkpt>
      <trkpt lat="43.66959" lon="1.23055">
        <ele>166.071899</ele>
        <time>2013-04-21T14:00:12Z</time>
      </trkpt>
      <trkpt lat="43.66948" lon="1.23027">
        <ele>164.674988</ele>
        <time>2013-04-21T14:00:19Z</time>
      </trkpt>
      <trkpt lat="43.66944" lon="1.23015">
        <ele>164.286209</ele>
        <time>2013-04-21T14:00:23Z</time>
      </trkpt>
      <trkpt lat="43.66942" lon="1.23011">
        <ele>164.40242</ele>
        <time>2013-04-21T14:00:25Z</time>
      </trkpt>
      <trkpt lat="43.66926" lon="1.22982">
        <ele>165.78775</ele>
        <time>2013-04-21T14:00:39Z</time>
      </trkpt>
      <trkpt lat="43.66917" lon="1.22966">
        <ele>166.982468</ele>
        <time>2013-04-21T14:00:47Z</time>
      </trkpt>
      <trkpt lat="43.66904" lon="1.22947">
        <ele>168.835159</ele>
        <time>2013-04-21T14:00:57Z</time>
      </trkpt>
      <trkpt lat="43.6689" lon="1.22921">
        <ele>170.686981</ele>
        <time>2013-04-21T14:01:09Z</time>
      </trkpt>
      <trkpt lat="43.66874" lon="1.22895">
        <ele>172.387772</ele>
        <time>2013-04-21T14:01:21Z</time>
      </trkpt>
      <trkpt lat="43.66851" lon="1.22859">
        <ele>174.881439</ele>
        <time>2013-04-21T14:01:39Z</time>
      </trkpt>
      <trkpt lat="43.66827" lon="1.22825">
        <ele>176.778122</ele>
        <time>2013-04-21T14:01:56Z</time>
      </trkpt>
      <trkpt lat="43.66812" lon="1.22787">
        <ele>178.131592</ele>
        <time>2013-04-21T14:02:12Z</time>
      </trkpt>
      <trkpt lat="43.66802" lon="1.22763">
        <ele>179.45015</ele>
        <time>2013-04-21T14:02:26Z</time>
      </trkpt>
      <trkpt lat="43.66792" lon="1.22743">
        <ele>180.914963</ele>
        <time>2013-04-21T14:02:38Z</time>
      </trkpt>
      <trkpt lat="43.66785" lon="1.22733">
        <ele>181.887512</ele>
        <time>2013-04-21T14:02:45Z</time>
      </trkpt>
      <trkpt lat="43.66782" lon="1.22719">
        <ele>182.7789</ele>
        <time>2013-04-21T14:02:51Z</time>
      </trkpt>
      <trkpt lat="43.66773" lon="1.22703">
        <ele>184.187057</ele>
        <time>2013-04-21T14:03:00Z</time>
      </trkpt>
      <trkpt lat="43.66742" lon="1.22694">
        <ele>186.905472</ele>
        <time>2013-04-21T14:03:13Z</time>
      </trkpt>
      <trkpt lat="43.66699" lon="1.22686">
        <ele>189.04248</ele>
        <time>2013-04-21T14:03:25Z</time>
      </trkpt>
      <trkpt lat="43.66695" lon="1.22686">
        <ele>189.186447</ele>
        <time>2013-04-21T14:03:26Z</time>
      </trkpt>
      <trkpt lat="43.66678" lon="1.22692">
        <ele>189.732025</ele>
        <time>2013-04-21T14:03:30Z</time>
      </trkpt>
      <trkpt lat="43.66653" lon="1.227">
        <ele>189.943558</ele>
        <time>2013-04-21T14:03:36Z</time>
      </trkpt>
      <trkpt lat="43.66644" lon="1.22701">
        <ele>189.977478</ele>
        <time>2013-04-21T14:03:38Z</time>
      </trkpt>
      <trkpt lat="43.66609" lon="1.22707">
        <ele>190</ele>
        <time>2013-04-21T14:03:47Z</time>
      </trkpt>
      <trkpt lat="43.66601" lon="1.22686">
        <ele>190</ele>
        <time>2013-04-21T14:03:53Z</time>
      </trkpt>
      <trkpt lat="43.66604" lon="1.2267">
        <ele>190</ele>
        <time>2013-04-21T14:03:56Z</time>
      </trkpt>
      <trkpt lat="43.66598" lon="1.22639">
        <ele>189.777832</ele>
        <time>2013-04-21T14:04:02Z</time>
      </trkpt>
      <trkpt lat="43.66595" lon="1.226">
        <ele>189.111649</ele>
        <time>2013-04-21T14:04:10Z</time>
      </trkpt>
      <trkpt lat="43.6658" lon="1.22592">
        <ele>189.301376</ele>
        <time>2013-04-21T14:04:15Z</time>
      </trkpt>
      <trkpt lat="43.66569" lon="1.22596">
        <ele>189.581253</ele>
        <time>2013-04-21T14:04:18Z</time>
      </trkpt>
      <trkpt lat="43.66536" lon="1.22627">
        <ele>190</ele>
        <time>2013-04-21T14:04:27Z</time>
      </trkpt>
      <trkpt lat="43.66481" lon="1.22639">
        <ele>189.613083</ele>
        <time>2013-04-21T14:04:38Z</time>
      </trkpt>
      <trkpt lat="43.6641" lon="1.22653">
        <ele>188.015701</ele>
        <time>2013-04-21T14:04:51Z</time>
      </trkpt>
      <trkpt lat="43.66343" lon="1.22661">
        <ele>187.387955</ele>
        <time>2013-04-21T14:05:04Z</time>
      </trkpt>
      <trkpt lat="43.66327" lon="1.22663">
        <ele>187.0616</ele>
        <time>2013-04-21T14:05:07Z</time>
      </trkpt>
      <trkpt lat="43.66305" lon="1.22661">
        <ele>187.380539</ele>
        <time>2013-04-21T14:05:11Z</time>
      </trkpt>
      <trkpt lat="43.6628" lon="1.22631">
        <ele>188.378754</ele>
        <time>2013-04-21T14:05:18Z</time>
      </trkpt>
      <trkpt lat="43.6626" lon="1.22598">
        <ele>189.348755</ele>
        <time>2013-04-21T14:05:24Z</time>
      </trkpt>
      <trkpt lat="43.66254" lon="1.22586">
        <ele>189.532501</ele>
        <time>2013-04-21T14:05:26Z</time>
      </trkpt>
      <trkpt lat="43.66219" lon="1.22552">
        <ele>190</ele>
        <time>2013-04-21T14:05:34Z</time>
      </trkpt>
      <trkpt lat="43.66213" lon="1.22542">
        <ele>190</ele>
        <time>2013-04-21T14:05:36Z</time>
      </trkpt>
      <trkpt lat="43.66199" lon="1.22536">
        <ele>190</ele>
        <time>2013-04-21T14:05:40Z</time>
      </trkpt>
      <trkpt lat="43.66185" lon="1.22541">
        <ele>190</ele>
        <time>2013-04-21T14:05:48Z</time>
      </trkpt>
      <trkpt lat="43.66186" lon="1.22541">
        <ele>190</ele>
        <time>2013-04-21T14:05:49Z</time>
      </trkpt>
      <trkpt lat="43.66185" lon="1.22536">
        <ele>190</ele>
        <time>2013-04-21T14:05:53Z</time>
      </trkpt>
      <trkpt lat="43.66179" lon="1.22536">
        <ele>190</ele>
        <time>2013-04-21T14:05:59Z</time>
      </trkpt>
      <trkpt lat="43.66152" lon="1.22534">
        <ele>189.993881</ele>
        <time>2013-04-21T14:06:09Z</time>
      </trkpt>
      <trkpt lat="43.6613" lon="1.22507">
        <ele>190</ele>
        <time>2013-04-21T14:06:18Z</time>
      </trkpt>
      <trkpt lat="43.66123" lon="1.22502">
        <ele>190</ele>
        <time>2013-04-21T14:06:20Z</time>
      </trkpt>
      <trkpt lat="43.66089" lon="1.22506">
        <ele>189.736084</ele>
        <time>2013-04-21T14:06:28Z</time>
      </trkpt>
      <trkpt lat="43.66079" lon="1.2252">
        <ele>189.672211</ele>
        <time>2013-04-21T14:06:31Z</time>
      </trkpt>
      <trkpt lat="43.66037" lon="1.22581">
        <ele>188.960571</ele>
        <time>2013-04-21T14:06:43Z</time>
      </trkpt>
      <trkpt lat="43.66016" lon="1.22618">
        <ele>188.594925</ele>
        <time>2013-04-21T14:06:49Z</time>
      </trkpt>
      <trkpt lat="43.66009" lon="1.2263">
        <ele>188.496368</ele>
        <time>2013-04-21T14:06:51Z</time>
      </trkpt>
      <trkpt lat="43.65973" lon="1.22659">
        <ele>188.093231</ele>
        <time>2013-04-21T14:06:58Z</time>
      </trkpt>
      <trkpt lat="43.65962" lon="1.22678">
        <ele>187.925659</ele>
        <time>2013-04-21T14:07:01Z</time>
      </trkpt>
      <trkpt lat="43.65948" lon="1.22715">
        <ele>187.567429</ele>
        <time>2013-04-21T14:07:06Z</time>
      </trkpt>
      <trkpt lat="43.65909" lon="1.22764">
        <ele>187.279572</ele>
        <time>2013-04-21T14:07:16Z</time>
      </trkpt>
      <trkpt lat="43.65889" lon="1.22785">
        <ele>187.228119</ele>
        <time>2013-04-21T14:07:20Z</time>
      </trkpt>
      <trkpt lat="43.65871" lon="1.22799">
        <ele>186.83107</ele>
        <time>2013-04-21T14:07:24Z</time>
      </trkpt>
      <trkpt lat="43.65834" lon="1.22816">
        <ele>185.55455</ele>
        <time>2013-04-21T14:07:30Z</time>
      </trkpt>
      <trkpt lat="43.65809" lon="1.22838">
        <ele>185.401672</ele>
        <time>2013-04-21T14:07:34Z</time>
      </trkpt>
      <trkpt lat="43.65788" lon="1.22862">
        <ele>185.200623</ele>
        <time>2013-04-21T14:07:38Z</time>
      </trkpt>
      <trkpt lat="43.65773" lon="1.22875">
        <ele>185.365631</ele>
        <time>2013-04-21T14:07:41Z</time>
      </trkpt>
      <trkpt lat="43.65743" lon="1.22884">
        <ele>185.511246</ele>
        <time>2013-04-21T14:07:47Z</time>
      </trkpt>
      <trkpt lat="43.65725" lon="1.22885">
        <ele>185.688019</ele>
        <time>2013-04-21T14:07:50Z</time>
      </trkpt>
      <trkpt lat="43.65704" lon="1.22902">
        <ele>185.963394</ele>
        <time>2013-04-21T14:07:55Z</time>
      </trkpt>
      <trkpt lat="43.65684" lon="1.22921">
        <ele>186.381256</ele>
        <time>2013-04-21T14:08:00Z</time>
      </trkpt>
      <trkpt lat="43.65684" lon="1.22959">
        <ele>186.996246</ele>
        <time>2013-04-21T14:08:05Z</time>
      </trkpt>
      <trkpt lat="43.6568" lon="1.22999">
        <ele>187.603851</ele>
        <time>2013-04-21T14:08:10Z</time>
      </trkpt>
      <trkpt lat="43.65662" lon="1.23033">
        <ele>187.979568</ele>
        <time>2013-04-21T14:08:15Z</time>
      </trkpt>
      <trkpt lat="43.65644" lon="1.23069">
        <ele>188.217499</ele>
        <time>2013-04-21T14:08:21Z</time>
      </trkpt>
      <trkpt lat="43.65625" lon="1.23091">
        <ele>188.642502</ele>
        <time>2013-04-21T14:08:25Z</time>
      </trkpt>
      <trkpt lat="43.65615" lon="1.23101">
        <ele>188.867493</ele>
        <time>2013-04-21T14:08:27Z</time>
      </trkpt>
      <trkpt lat="43.65573" lon="1.23148">
        <ele>189.800003</ele>
        <time>2013-04-21T14:08:36Z</time>
      </trkpt>
      <trkpt lat="43.6556" lon="1.23162">
        <ele>190.100006</ele>
        <time>2013-04-21T14:08:39Z</time>
      </trkpt>
      <trkpt lat="43.65543" lon="1.23182">
        <ele>190.612457</ele>
        <time>2013-04-21T14:08:43Z</time>
      </trkpt>
      <trkpt lat="43.65522" lon="1.23202">
        <ele>190.980545</ele>
        <time>2013-04-21T14:08:49Z</time>
      </trkpt>
      <trkpt lat="43.65508" lon="1.23217">
        <ele>191.222519</ele>
        <time>2013-04-21T14:08:53Z</time>
      </trkpt>
      <trkpt lat="43.6548" lon="1.23247">
        <ele>191.923279</ele>
        <time>2013-04-21T14:09:01Z</time>
      </trkpt>
      <trkpt lat="43.65459" lon="1.23267">
        <ele>192</ele>
        <time>2013-04-21T14:09:08Z</time>
      </trkpt>
      <trkpt lat="43.65442" lon="1.23285">
        <ele>192</ele>
        <time>2013-04-21T14:09:13Z</time>
      </trkpt>
      <trkpt lat="43.65435" lon="1.2329">
        <ele>192</ele>
        <time>2013-04-21T14:09:15Z</time>
      </trkpt>
      <trkpt lat="43.65418" lon="1.23306">
        <ele>192</ele>
        <time>2013-04-21T14:09:20Z</time>
      </trkpt>
      <trkpt lat="43.65389" lon="1.23337">
        <ele>192</ele>
        <time>2013-04-21T14:09:28Z</time>
      </trkpt>
      <trkpt lat="43.65368" lon="1.23358">
        <ele>192</ele>
        <time>2013-04-21T14:09:34Z</time>
      </trkpt>
      <trkpt lat="43.65357" lon="1.2337">
        <ele>192</ele>
        <time>2013-04-21T14:09:37Z</time>
      </trkpt>
      <trkpt lat="43.6533" lon="1.23397">
        <ele>192</ele>
        <time>2013-04-21T14:09:43Z</time>
      </trkpt>
      <trkpt lat="43.65312" lon="1.23418">
        <ele>192</ele>
        <time>2013-04-21T14:09:48Z</time>
      </trkpt>
      <trkpt lat="43.65303" lon="1.23429">
        <ele>192</ele>
        <time>2013-04-21T14:09:52Z</time>
      </trkpt>
      <trkpt lat="43.65288" lon="1.23445">
        <ele>192</ele>
        <time>2013-04-21T14:09:57Z</time>
      </trkpt>
      <trkpt lat="43.65276" lon="1.23458">
        <ele>192</ele>
        <time>2013-04-21T14:10:02Z</time>
      </trkpt>
      <trkpt lat="43.65247" lon="1.23489">
        <ele>192</ele>
        <time>2013-04-21T14:10:13Z</time>
      </trkpt>
      <trkpt lat="43.65237" lon="1.23502">
        <ele>192</ele>
        <time>2013-04-21T14:10:16Z</time>
      </trkpt>
      <trkpt lat="43.65226" lon="1.23514">
        <ele>192</ele>
        <time>2013-04-21T14:10:19Z</time>
      </trkpt>
      <trkpt lat="43.65192" lon="1.23549">
        <ele>192</ele>
        <time>2013-04-21T14:10:28Z</time>
      </trkpt>
      <trkpt lat="43.65184" lon="1.23557">
        <ele>192</ele>
        <time>2013-04-21T14:10:30Z</time>
      </trkpt>
      <trkpt lat="43.65169" lon="1.23568">
        <ele>192</ele>
        <time>2013-04-21T14:10:34Z</time>
      </trkpt>
      <trkpt lat="43.65147" lon="1.23589">
        <ele>192.387497</ele>
        <time>2013-04-21T14:10:43Z</time>
      </trkpt>
      <trkpt lat="43.65119" lon="1.23615">
        <ele>193</ele>
        <time>2013-04-21T14:10:51Z</time>
      </trkpt>
      <trkpt lat="43.65111" lon="1.23622">
        <ele>193</ele>
        <time>2013-04-21T14:10:53Z</time>
      </trkpt>
      <trkpt lat="43.65074" lon="1.23661">
        <ele>193</ele>
        <time>2013-04-21T14:11:03Z</time>
      </trkpt>
      <trkpt lat="43.65058" lon="1.23681">
        <ele>193</ele>
        <time>2013-04-21T14:11:07Z</time>
      </trkpt>
      <trkpt lat="43.65049" lon="1.2369">
        <ele>193</ele>
        <time>2013-04-21T14:11:09Z</time>
      </trkpt>
      <trkpt lat="43.65032" lon="1.23708">
        <ele>193</ele>
        <time>2013-04-21T14:11:13Z</time>
      </trkpt>
      <trkpt lat="43.65025" lon="1.23718">
        <ele>193</ele>
        <time>2013-04-21T14:11:17Z</time>
      </trkpt>
      <trkpt lat="43.65026" lon="1.23723">
        <ele>193</ele>
        <time>2013-04-21T14:11:22Z</time>
      </trkpt>
      <trkpt lat="43.65047" lon="1.23695">
        <ele>193</ele>
        <time>2013-04-21T14:11:32Z</time>
      </trkpt>
      <trkpt lat="43.6504" lon="1.23672">
        <ele>193</ele>
        <time>2013-04-21T14:11:37Z</time>
      </trkpt>
      <trkpt lat="43.65034" lon="1.23662">
        <ele>193</ele>
        <time>2013-04-21T14:11:39Z</time>
      </trkpt>
      <trkpt lat="43.64982" lon="1.23571">
        <ele>193.057495</ele>
        <time>2013-04-21T14:11:55Z</time>
      </trkpt>
      <trkpt lat="43.64956" lon="1.23521">
        <ele>193.794434</ele>
        <time>2013-04-21T14:12:03Z</time>
      </trkpt>
      <trkpt lat="43.64942" lon="1.23498">
        <ele>193.986237</ele>
        <time>2013-04-21T14:12:07Z</time>
      </trkpt>
      <trkpt lat="43.64881" lon="1.23388">
        <ele>194</ele>
        <time>2013-04-21T14:12:26Z</time>
      </trkpt>
      <trkpt lat="43.64865" lon="1.23361">
        <ele>194</ele>
        <time>2013-04-21T14:12:31Z</time>
      </trkpt>
      <trkpt lat="43.64856" lon="1.23345">
        <ele>194</ele>
        <time>2013-04-21T14:12:34Z</time>
      </trkpt>
      <trkpt lat="43.64818" lon="1.23275">
        <ele>194.802246</ele>
        <time>2013-04-21T14:12:49Z</time>
      </trkpt>
      <trkpt lat="43.64789" lon="1.23221">
        <ele>196.229996</ele>
        <time>2013-04-21T14:13:02Z</time>
      </trkpt>
      <trkpt lat="43.64751" lon="1.23158">
        <ele>199.842499</ele>
        <time>2013-04-21T14:13:18Z</time>
      </trkpt>
      <trkpt lat="43.64744" lon="1.23146">
        <ele>200.421249</ele>
        <time>2013-04-21T14:13:21Z</time>
      </trkpt>
      <trkpt lat="43.64719" lon="1.23103">
        <ele>201.845276</ele>
        <time>2013-04-21T14:13:30Z</time>
      </trkpt>
      <trkpt lat="43.64692" lon="1.23057">
        <ele>202.421005</ele>
        <time>2013-04-21T14:13:40Z</time>
      </trkpt>
      <trkpt lat="43.64642" lon="1.22973">
        <ele>203</ele>
        <time>2013-04-21T14:13:56Z</time>
      </trkpt>
      <trkpt lat="43.64636" lon="1.22961">
        <ele>203</ele>
        <time>2013-04-21T14:13:58Z</time>
      </trkpt>
      <trkpt lat="43.64603" lon="1.22906">
        <ele>203</ele>
        <time>2013-04-21T14:14:08Z</time>
      </trkpt>
      <trkpt lat="43.64563" lon="1.22839">
        <ele>203.121201</ele>
        <time>2013-04-21T14:14:20Z</time>
      </trkpt>
      <trkpt lat="43.64557" lon="1.22829">
        <ele>203.259888</ele>
        <time>2013-04-21T14:14:22Z</time>
      </trkpt>
      <trkpt lat="43.64544" lon="1.22808">
        <ele>203.619995</ele>
        <time>2013-04-21T14:14:26Z</time>
      </trkpt>
      <trkpt lat="43.64522" lon="1.2277">
        <ele>204</ele>
        <time>2013-04-21T14:14:33Z</time>
      </trkpt>
      <trkpt lat="43.64501" lon="1.22736">
        <ele>204</ele>
        <time>2013-04-21T14:14:40Z</time>
      </trkpt>
      <trkpt lat="43.6446" lon="1.22665">
        <ele>204.963272</ele>
        <time>2013-04-21T14:14:54Z</time>
      </trkpt>
      <trkpt lat="43.64445" lon="1.2264">
        <ele>205.095947</ele>
        <time>2013-04-21T14:14:59Z</time>
      </trkpt>
      <trkpt lat="43.64415" lon="1.22594">
        <ele>205.455002</ele>
        <time>2013-04-21T14:15:09Z</time>
      </trkpt>
      <trkpt lat="43.64399" lon="1.22599">
        <ele>205.804993</ele>
        <time>2013-04-21T14:15:14Z</time>
      </trkpt>
      <trkpt lat="43.64373" lon="1.2263">
        <ele>206.392502</ele>
        <time>2013-04-21T14:15:22Z</time>
      </trkpt>
      <trkpt lat="43.64362" lon="1.22638">
        <ele>206.637497</ele>
        <time>2013-04-21T14:15:30Z</time>
      </trkpt>
      <trkpt lat="43.64333" lon="1.22677">
        <ele>207</ele>
        <time>2013-04-21T14:15:40Z</time>
      </trkpt>
      <trkpt lat="43.64314" lon="1.22698">
        <ele>206.950623</ele>
        <time>2013-04-21T14:15:45Z</time>
      </trkpt>
      <trkpt lat="43.64289" lon="1.22724">
        <ele>206.541245</ele>
        <time>2013-04-21T14:15:51Z</time>
      </trkpt>
      <trkpt lat="43.64272" lon="1.22744">
        <ele>206.226868</ele>
        <time>2013-04-21T14:15:55Z</time>
      </trkpt>
      <trkpt lat="43.64254" lon="1.22763">
        <ele>206</ele>
        <time>2013-04-21T14:15:59Z</time>
      </trkpt>
      <trkpt lat="43.64246" lon="1.22773">
        <ele>206</ele>
        <time>2013-04-21T14:16:01Z</time>
      </trkpt>
      <trkpt lat="43.6423" lon="1.22792">
        <ele>206</ele>
        <time>2013-04-21T14:16:05Z</time>
      </trkpt>
      <trkpt lat="43.6421" lon="1.22814">
        <ele>206</ele>
        <time>2013-04-21T14:16:10Z</time>
      </trkpt>
      <trkpt lat="43.64164" lon="1.22864">
        <ele>206</ele>
        <time>2013-04-21T14:16:21Z</time>
      </trkpt>
      <trkpt lat="43.64137" lon="1.22897">
        <ele>206</ele>
        <time>2013-04-21T14:16:28Z</time>
      </trkpt>
      <trkpt lat="43.64112" lon="1.22931">
        <ele>205.490005</ele>
        <time>2013-04-21T14:16:35Z</time>
      </trkpt>
      <trkpt lat="43.64098" lon="1.22979">
        <ele>205.12793</ele>
        <time>2013-04-21T14:16:41Z</time>
      </trkpt>
      <trkpt lat="43.64092" lon="1.2301">
        <ele>205.261475</ele>
        <time>2013-04-21T14:16:45Z</time>
      </trkpt>
      <trkpt lat="43.64069" lon="1.23042">
        <ele>204.5</ele>
        <time>2013-04-21T14:16:50Z</time>
      </trkpt>
      <trkpt lat="43.64012" lon="1.23053">
        <ele>202.642532</ele>
        <time>2013-04-21T14:16:57Z</time>
      </trkpt>
      <trkpt lat="43.6399" lon="1.2307">
        <ele>202.07312</ele>
        <time>2013-04-21T14:17:01Z</time>
      </trkpt>
      <trkpt lat="43.63968" lon="1.23094">
        <ele>202.331253</ele>
        <time>2013-04-21T14:17:08Z</time>
      </trkpt>
      <trkpt lat="43.63932" lon="1.23135">
        <ele>202.331253</ele>
        <time>2013-04-21T14:17:19Z</time>
      </trkpt>
      <trkpt lat="43.63891" lon="1.23184">
        <ele>202.28598</ele>
        <time>2013-04-21T14:17:31Z</time>
      </trkpt>
      <trkpt lat="43.63864" lon="1.23214">
        <ele>201.757507</ele>
        <time>2013-04-21T14:17:39Z</time>
      </trkpt>
      <trkpt lat="43.6385" lon="1.23232">
        <ele>201.626877</ele>
        <time>2013-04-21T14:17:43Z</time>
      </trkpt>
      <trkpt lat="43.63833" lon="1.2325">
        <ele>201.716248</ele>
        <time>2013-04-21T14:17:47Z</time>
      </trkpt>
      <trkpt lat="43.63783" lon="1.23281">
        <ele>201.693756</ele>
        <time>2013-04-21T14:17:56Z</time>
      </trkpt>
      <trkpt lat="43.63774" lon="1.23277">
        <ele>201.765625</ele>
        <time>2013-04-21T14:17:58Z</time>
      </trkpt>
      <trkpt lat="43.63761" lon="1.23269">
        <ele>201.762497</ele>
        <time>2013-04-21T14:18:01Z</time>
      </trkpt>
      <trkpt lat="43.63743" lon="1.23228">
        <ele>201.763672</ele>
        <time>2013-04-21T14:18:09Z</time>
      </trkpt>
      <trkpt lat="43.63722" lon="1.23185">
        <ele>202.270767</ele>
        <time>2013-04-21T14:18:17Z</time>
      </trkpt>
      <trkpt lat="43.63718" lon="1.23182">
        <ele>202.235626</ele>
        <time>2013-04-21T14:18:18Z</time>
      </trkpt>
      <trkpt lat="43.63709" lon="1.23176">
        <ele>202.121246</ele>
        <time>2013-04-21T14:18:20Z</time>
      </trkpt>
      <trkpt lat="43.63685" lon="1.23168">
        <ele>201.719376</ele>
        <time>2013-04-21T14:18:24Z</time>
      </trkpt>
      <trkpt lat="43.63673" lon="1.23166">
        <ele>201.496246</ele>
        <time>2013-04-21T14:18:26Z</time>
      </trkpt>
      <trkpt lat="43.63638" lon="1.23151">
        <ele>200.970627</ele>
        <time>2013-04-21T14:18:33Z</time>
      </trkpt>
      <trkpt lat="43.63622" lon="1.23144">
        <ele>200.965622</ele>
        <time>2013-04-21T14:18:37Z</time>
      </trkpt>
      <trkpt lat="43.63606" lon="1.23131">
        <ele>201.243607</ele>
        <time>2013-04-21T14:18:41Z</time>
      </trkpt>
      <trkpt lat="43.63598" lon="1.23125">
        <ele>201.346603</ele>
        <time>2013-04-21T14:18:43Z</time>
      </trkpt>
      <trkpt lat="43.6357" lon="1.23118">
        <ele>201.392502</ele>
        <time>2013-04-21T14:18:48Z</time>
      </trkpt>
      <trkpt lat="43.63558" lon="1.23119">
        <ele>201.376877</ele>
        <time>2013-04-21T14:18:50Z</time>
      </trkpt>
      <trkpt lat="43.63548" lon="1.2311">
        <ele>201.533127</ele>
        <time>2013-04-21T14:18:54Z</time>
      </trkpt>
      <trkpt lat="43.63524" lon="1.23067">
        <ele>202.751587</ele>
        <time>2013-04-21T14:19:02Z</time>
      </trkpt>
      <trkpt lat="43.63517" lon="1.23059">
        <ele>203.068909</ele>
        <time>2013-04-21T14:19:04Z</time>
      </trkpt>
      <trkpt lat="43.63511" lon="1.23055">
        <ele>203.239548</ele>
        <time>2013-04-21T14:19:18Z</time>
      </trkpt>
      <trkpt lat="43.63511" lon="1.23049">
        <ele>203.376068</ele>
        <time>2013-04-21T14:19:44Z</time>
      </trkpt>
      <trkpt lat="43.63511" lon="1.23048">
        <ele>203.398132</ele>
        <time>2013-04-21T14:20:03Z</time>
      </trkpt>
      <trkpt lat="43.63518" lon="1.23023">
        <ele>203.91124</ele>
        <time>2013-04-21T14:20:12Z</time>
      </trkpt>
      <trkpt lat="43.63534" lon="1.22994">
        <ele>204.772675</ele>
        <time>2013-04-21T14:20:21Z</time>
      </trkpt>
      <trkpt lat="43.63544" lon="1.2298">
        <ele>205.261246</ele>
        <time>2013-04-21T14:20:25Z</time>
      </trkpt>
      <trkpt lat="43.63568" lon="1.2297">
        <ele>205.592499</ele>
        <time>2013-04-21T14:20:33Z</time>
      </trkpt>
      <trkpt lat="43.63574" lon="1.22964">
        <ele>205.756256</ele>
        <time>2013-04-21T14:20:35Z</time>
      </trkpt>
      <trkpt lat="43.63593" lon="1.22942">
        <ele>206.456253</ele>
        <time>2013-04-21T14:20:41Z</time>
      </trkpt>
      <trkpt lat="43.63625" lon="1.22917">
        <ele>207.256256</ele>
        <time>2013-04-21T14:20:50Z</time>
      </trkpt>
      <trkpt lat="43.63628" lon="1.22916">
        <ele>207.271255</ele>
        <time>2013-04-21T14:20:51Z</time>
      </trkpt>
      <trkpt lat="43.63648" lon="1.22901">
        <ele>208.176254</ele>
        <time>2013-04-21T14:20:57Z</time>
      </trkpt>
      <trkpt lat="43.63669" lon="1.22871">
        <ele>209.248749</ele>
        <time>2013-04-21T14:21:04Z</time>
      </trkpt>
      <trkpt lat="43.63681" lon="1.22855">
        <ele>209.607498</ele>
        <time>2013-04-21T14:21:08Z</time>
      </trkpt>
      <trkpt lat="43.63678" lon="1.22843">
        <ele>209.813751</ele>
        <time>2013-04-21T14:21:12Z</time>
      </trkpt>
      <trkpt lat="43.63663" lon="1.22827">
        <ele>209.775894</ele>
        <time>2013-04-21T14:21:18Z</time>
      </trkpt>
      <trkpt lat="43.63655" lon="1.2282">
        <ele>209.66713</ele>
        <time>2013-04-21T14:21:22Z</time>
      </trkpt>
      <trkpt lat="43.63629" lon="1.22796">
        <ele>209.58902</ele>
        <time>2013-04-21T14:21:35Z</time>
      </trkpt>
      <trkpt lat="43.6362" lon="1.22788">
        <ele>209.848618</ele>
        <time>2013-04-21T14:21:39Z</time>
      </trkpt>
      <trkpt lat="43.63588" lon="1.22761">
        <ele>211.050629</ele>
        <time>2013-04-21T14:21:51Z</time>
      </trkpt>
      <trkpt lat="43.63587" lon="1.22759">
        <ele>211.106873</ele>
        <time>2013-04-21T14:22:07Z</time>
      </trkpt>
      <trkpt lat="43.63588" lon="1.2276">
        <ele>211.054382</ele>
        <time>2013-04-21T14:22:09Z</time>
      </trkpt>
      <trkpt lat="43.63608" lon="1.2278">
        <ele>210.229736</ele>
        <time>2013-04-21T14:22:20Z</time>
      </trkpt>
      <trkpt lat="43.63638" lon="1.22803">
        <ele>209.582336</ele>
        <time>2013-04-21T14:22:32Z</time>
      </trkpt>
      <trkpt lat="43.63653" lon="1.22814">
        <ele>209.681671</ele>
        <time>2013-04-21T14:22:37Z</time>
      </trkpt>
      <trkpt lat="43.6367" lon="1.22829">
        <ele>209.932053</ele>
        <time>2013-04-21T14:22:47Z</time>
      </trkpt>
      <trkpt lat="43.63679" lon="1.22838">
        <ele>209.893127</ele>
        <time>2013-04-21T14:22:51Z</time>
      </trkpt>
      <trkpt lat="43.63708" lon="1.22843">
        <ele>209.793121</ele>
        <time>2013-04-21T14:23:02Z</time>
      </trkpt>
      <trkpt lat="43.63724" lon="1.22807">
        <ele>210.368118</ele>
        <time>2013-04-21T14:23:10Z</time>
      </trkpt>
      <trkpt lat="43.63741" lon="1.22766">
        <ele>210.981979</ele>
        <time>2013-04-21T14:23:18Z</time>
      </trkpt>
      <trkpt lat="43.63757" lon="1.22717">
        <ele>210.283188</ele>
        <time>2013-04-21T14:23:27Z</time>
      </trkpt>
      <trkpt lat="43.63771" lon="1.22684">
        <ele>209.789993</ele>
        <time>2013-04-21T14:23:33Z</time>
      </trkpt>
      <trkpt lat="43.6379" lon="1.2264">
        <ele>209.374481</ele>
        <time>2013-04-21T14:23:41Z</time>
      </trkpt>
      <trkpt lat="43.63805" lon="1.22609">
        <ele>209.019394</ele>
        <time>2013-04-21T14:23:47Z</time>
      </trkpt>
      <trkpt lat="43.63831" lon="1.22557">
        <ele>207.869995</ele>
        <time>2013-04-21T14:23:56Z</time>
      </trkpt>
      <trkpt lat="43.63854" lon="1.22505">
        <ele>206.927567</ele>
        <time>2013-04-21T14:24:04Z</time>
      </trkpt>
      <trkpt lat="43.63861" lon="1.22487">
        <ele>206.876877</ele>
        <time>2013-04-21T14:24:08Z</time>
      </trkpt>
      <trkpt lat="43.63867" lon="1.22477">
        <ele>206.868866</ele>
        <time>2013-04-21T14:24:16Z</time>
      </trkpt>
      <trkpt lat="43.63877" lon="1.22454">
        <ele>207.030624</ele>
        <time>2013-04-21T14:24:25Z</time>
      </trkpt>
      <trkpt lat="43.63879" lon="1.2245">
        <ele>207.091248</ele>
        <time>2013-04-21T14:24:26Z</time>
      </trkpt>
      <trkpt lat="43.63894" lon="1.22419">
        <ele>207.589371</ele>
        <time>2013-04-21T14:24:35Z</time>
      </trkpt>
      <trkpt lat="43.63905" lon="1.22399">
        <ele>207.91188</ele>
        <time>2013-04-21T14:24:40Z</time>
      </trkpt>
      <trkpt lat="43.63907" lon="1.22391">
        <ele>208.041245</ele>
        <time>2013-04-21T14:24:42Z</time>
      </trkpt>
      <trkpt lat="43.6392" lon="1.22363">
        <ele>208.487503</ele>
        <time>2013-04-21T14:24:49Z</time>
      </trkpt>
      <trkpt lat="43.63925" lon="1.22347">
        <ele>208.741257</ele>
        <time>2013-04-21T14:24:54Z</time>
      </trkpt>
      <trkpt lat="43.6393" lon="1.22339">
        <ele>208.867493</ele>
        <time>2013-04-21T14:24:57Z</time>
      </trkpt>
      <trkpt lat="43.63933" lon="1.22332">
        <ele>208.98938</ele>
        <time>2013-04-21T14:25:00Z</time>
      </trkpt>
      <trkpt lat="43.63939" lon="1.2231">
        <ele>208.976547</ele>
        <time>2013-04-21T14:25:06Z</time>
      </trkpt>
      <trkpt lat="43.6396" lon="1.22268">
        <ele>209.004395</ele>
        <time>2013-04-21T14:25:17Z</time>
      </trkpt>
      <trkpt lat="43.6397" lon="1.22235">
        <ele>209.145782</ele>
        <time>2013-04-21T14:25:25Z</time>
      </trkpt>
      <trkpt lat="43.6399" lon="1.22185">
        <ele>209.280975</ele>
        <time>2013-04-21T14:25:35Z</time>
      </trkpt>
      <trkpt lat="43.63997" lon="1.22187">
        <ele>209.200409</ele>
        <time>2013-04-21T14:25:39Z</time>
      </trkpt>
      <trkpt lat="43.64014" lon="1.22187">
        <ele>209.081314</ele>
        <time>2013-04-21T14:25:45Z</time>
      </trkpt>
      <trkpt lat="43.64016" lon="1.22185">
        <ele>209.073837</ele>
        <time>2013-04-21T14:25:47Z</time>
      </trkpt>
      <trkpt lat="43.64019" lon="1.22177">
        <ele>209.070633</ele>
        <time>2013-04-21T14:25:51Z</time>
      </trkpt>
      <trkpt lat="43.6402" lon="1.22168">
        <ele>209.076736</ele>
        <time>2013-04-21T14:25:55Z</time>
      </trkpt>
      <trkpt lat="43.64021" lon="1.22164">
        <ele>209.080933</ele>
        <time>2013-04-21T14:25:57Z</time>
      </trkpt>
      <trkpt lat="43.64014" lon="1.22143">
        <ele>209.274368</ele>
        <time>2013-04-21T14:26:06Z</time>
      </trkpt>
      <trkpt lat="43.64016" lon="1.22134">
        <ele>209.378754</ele>
        <time>2013-04-21T14:26:11Z</time>
      </trkpt>
      <trkpt lat="43.64021" lon="1.22126">
        <ele>209.399368</ele>
        <time>2013-04-21T14:26:15Z</time>
      </trkpt>
      <trkpt lat="43.64031" lon="1.22092">
        <ele>209.83313</ele>
        <time>2013-04-21T14:26:25Z</time>
      </trkpt>
      <trkpt lat="43.64031" lon="1.22089">
        <ele>209.873749</ele>
        <time>2013-04-21T14:26:26Z</time>
      </trkpt>
      <trkpt lat="43.6403" lon="1.22083">
        <ele>209.982498</ele>
        <time>2013-04-21T14:26:29Z</time>
      </trkpt>
      <trkpt lat="43.64012" lon="1.22064">
        <ele>210.478119</ele>
        <time>2013-04-21T14:26:38Z</time>
      </trkpt>
      <trkpt lat="43.63986" lon="1.22039">
        <ele>212.092346</ele>
        <time>2013-04-21T14:26:49Z</time>
      </trkpt>
      <trkpt lat="43.63957" lon="1.22013">
        <ele>214.72467</ele>
        <time>2013-04-21T14:27:00Z</time>
      </trkpt>
      <trkpt lat="43.63934" lon="1.21994">
        <ele>216.911255</ele>
        <time>2013-04-21T14:27:09Z</time>
      </trkpt>
      <trkpt lat="43.63906" lon="1.21974">
        <ele>219.485001</ele>
        <time>2013-04-21T14:27:20Z</time>
      </trkpt>
      <trkpt lat="43.63894" lon="1.21962">
        <ele>220.646255</ele>
        <time>2013-04-21T14:27:26Z</time>
      </trkpt>
      <trkpt lat="43.63882" lon="1.21946">
        <ele>221.500839</ele>
        <time>2013-04-21T14:27:32Z</time>
      </trkpt>
      <trkpt lat="43.63855" lon="1.21923">
        <ele>223.727341</ele>
        <time>2013-04-21T14:27:42Z</time>
      </trkpt>
      <trkpt lat="43.63846" lon="1.21914">
        <ele>224.552643</ele>
        <time>2013-04-21T14:27:46Z</time>
      </trkpt>
      <trkpt lat="43.6383" lon="1.21901">
        <ele>225.589066</ele>
        <time>2013-04-21T14:27:53Z</time>
      </trkpt>
      <trkpt lat="43.63793" lon="1.21875">
        <ele>226.705002</ele>
        <time>2013-04-21T14:28:04Z</time>
      </trkpt>
      <trkpt lat="43.6375" lon="1.21839">
        <ele>226.978745</ele>
        <time>2013-04-21T14:28:16Z</time>
      </trkpt>
      <trkpt lat="43.63681" lon="1.21786">
        <ele>225.745514</ele>
        <time>2013-04-21T14:28:30Z</time>
      </trkpt>
      <trkpt lat="43.63664" lon="1.2177">
        <ele>225.833313</ele>
        <time>2013-04-21T14:28:34Z</time>
      </trkpt>
      <trkpt lat="43.63604" lon="1.21722">
        <ele>226</ele>
        <time>2013-04-21T14:28:47Z</time>
      </trkpt>
      <trkpt lat="43.63587" lon="1.21706">
        <ele>226.136414</ele>
        <time>2013-04-21T14:28:51Z</time>
      </trkpt>
      <trkpt lat="43.63579" lon="1.21699">
        <ele>226.273758</ele>
        <time>2013-04-21T14:28:53Z</time>
      </trkpt>
      <trkpt lat="43.6357" lon="1.21692">
        <ele>226.463821</ele>
        <time>2013-04-21T14:28:55Z</time>
      </trkpt>
      <trkpt lat="43.63554" lon="1.21678">
        <ele>226.795273</ele>
        <time>2013-04-21T14:28:59Z</time>
      </trkpt>
      <trkpt lat="43.63545" lon="1.21671">
        <ele>226.914185</ele>
        <time>2013-04-21T14:29:01Z</time>
      </trkpt>
      <trkpt lat="43.63536" lon="1.21663">
        <ele>226.982468</ele>
        <time>2013-04-21T14:29:03Z</time>
      </trkpt>
      <trkpt lat="43.63519" lon="1.21649">
        <ele>227.156876</ele>
        <time>2013-04-21T14:29:07Z</time>
      </trkpt>
      <trkpt lat="43.63489" lon="1.21623">
        <ele>227.585007</ele>
        <time>2013-04-21T14:29:14Z</time>
      </trkpt>
      <trkpt lat="43.63456" lon="1.21598">
        <ele>228</ele>
        <time>2013-04-21T14:29:21Z</time>
      </trkpt>
      <trkpt lat="43.63434" lon="1.21578">
        <ele>228</ele>
        <time>2013-04-21T14:29:26Z</time>
      </trkpt>
      <trkpt lat="43.63358" lon="1.21516">
        <ele>227.902206</ele>
        <time>2013-04-21T14:29:41Z</time>
      </trkpt>
      <trkpt lat="43.63293" lon="1.21461">
        <ele>228.147507</ele>
        <time>2013-04-21T14:29:54Z</time>
      </trkpt>
      <trkpt lat="43.63247" lon="1.21423">
        <ele>229</ele>
        <time>2013-04-21T14:30:04Z</time>
      </trkpt>
      <trkpt lat="43.63233" lon="1.21411">
        <ele>229</ele>
        <time>2013-04-21T14:30:07Z</time>
      </trkpt>
      <trkpt lat="43.6318" lon="1.21363">
        <ele>229.639999</ele>
        <time>2013-04-21T14:30:18Z</time>
      </trkpt>
      <trkpt lat="43.63159" lon="1.21348">
        <ele>230</ele>
        <time>2013-04-21T14:30:22Z</time>
      </trkpt>
      <trkpt lat="43.63106" lon="1.21305">
        <ele>230.270004</ele>
        <time>2013-04-21T14:30:33Z</time>
      </trkpt>
      <trkpt lat="43.63081" lon="1.21284">
        <ele>230.830002</ele>
        <time>2013-04-21T14:30:38Z</time>
      </trkpt>
      <trkpt lat="43.6305" lon="1.21259">
        <ele>231.20665</ele>
        <time>2013-04-21T14:30:45Z</time>
      </trkpt>
      <trkpt lat="43.63033" lon="1.21278">
        <ele>231.615219</ele>
        <time>2013-04-21T14:30:51Z</time>
      </trkpt>
      <trkpt lat="43.63026" lon="1.21292">
        <ele>231.921448</ele>
        <time>2013-04-21T14:30:54Z</time>
      </trkpt>
      <trkpt lat="43.63006" lon="1.21334">
        <ele>232.304184</ele>
        <time>2013-04-21T14:31:02Z</time>
      </trkpt>
      <trkpt lat="43.6299" lon="1.2137">
        <ele>232.724487</ele>
        <time>2013-04-21T14:31:08Z</time>
      </trkpt>
      <trkpt lat="43.62966" lon="1.21421">
        <ele>232.426605</ele>
        <time>2013-04-21T14:31:16Z</time>
      </trkpt>
      <trkpt lat="43.62949" lon="1.21458">
        <ele>232.333618</ele>
        <time>2013-04-21T14:31:22Z</time>
      </trkpt>
      <trkpt lat="43.6293" lon="1.21474">
        <ele>232.162506</ele>
        <time>2013-04-21T14:31:26Z</time>
      </trkpt>
      <trkpt lat="43.62895" lon="1.21451">
        <ele>232.54187</ele>
        <time>2013-04-21T14:31:34Z</time>
      </trkpt>
      <trkpt lat="43.62881" lon="1.2144">
        <ele>232.733749</ele>
        <time>2013-04-21T14:31:37Z</time>
      </trkpt>
      <trkpt lat="43.62854" lon="1.21418">
        <ele>233.096878</ele>
        <time>2013-04-21T14:31:43Z</time>
      </trkpt>
      <trkpt lat="43.6283" lon="1.21396">
        <ele>233.695786</ele>
        <time>2013-04-21T14:31:49Z</time>
      </trkpt>
      <trkpt lat="43.62793" lon="1.21367">
        <ele>234.252502</ele>
        <time>2013-04-21T14:32:00Z</time>
      </trkpt>
      <trkpt lat="43.62789" lon="1.21365">
        <ele>234.335007</ele>
        <time>2013-04-21T14:32:11Z</time>
      </trkpt>
      <trkpt lat="43.62788" lon="1.21365">
        <ele>234.354996</ele>
        <time>2013-04-21T14:32:12Z</time>
      </trkpt>
      <trkpt lat="43.62781" lon="1.21363">
        <ele>234.520004</ele>
        <time>2013-04-21T14:32:16Z</time>
      </trkpt>
      <trkpt lat="43.62746" lon="1.21333">
        <ele>235</ele>
        <time>2013-04-21T14:32:29Z</time>
      </trkpt>
      <trkpt lat="43.62713" lon="1.21307">
        <ele>235</ele>
        <time>2013-04-21T14:32:40Z</time>
      </trkpt>
      <trkpt lat="43.62678" lon="1.21279">
        <ele>235</ele>
        <time>2013-04-21T14:32:50Z</time>
      </trkpt>
      <trkpt lat="43.62674" lon="1.21276">
        <ele>235</ele>
        <time>2013-04-21T14:32:51Z</time>
      </trkpt>
      <trkpt lat="43.62643" lon="1.21248">
        <ele>234.476517</ele>
        <time>2013-04-21T14:33:00Z</time>
      </trkpt>
      <trkpt lat="43.62609" lon="1.21223">
        <ele>234.116333</ele>
        <time>2013-04-21T14:33:10Z</time>
      </trkpt>
      <trkpt lat="43.62586" lon="1.21203">
        <ele>233.593903</ele>
        <time>2013-04-21T14:33:19Z</time>
      </trkpt>
      <trkpt lat="43.62563" lon="1.2118">
        <ele>232.367493</ele>
        <time>2013-04-21T14:33:27Z</time>
      </trkpt>
      <trkpt lat="43.62546" lon="1.21165">
        <ele>231.881882</ele>
        <time>2013-04-21T14:33:32Z</time>
      </trkpt>
      <trkpt lat="43.62539" lon="1.21162">
        <ele>231.612503</ele>
        <time>2013-04-21T14:33:34Z</time>
      </trkpt>
      <trkpt lat="43.62524" lon="1.21148">
        <ele>231.770859</ele>
        <time>2013-04-21T14:33:42Z</time>
      </trkpt>
      <trkpt lat="43.62493" lon="1.21123">
        <ele>233.682007</ele>
        <time>2013-04-21T14:33:54Z</time>
      </trkpt>
      <trkpt lat="43.62453" lon="1.21092">
        <ele>236.125381</ele>
        <time>2013-04-21T14:34:07Z</time>
      </trkpt>
      <trkpt lat="43.62416" lon="1.21061">
        <ele>237</ele>
        <time>2013-04-21T14:34:18Z</time>
      </trkpt>
      <trkpt lat="43.62388" lon="1.21037">
        <ele>237.079865</ele>
        <time>2013-04-21T14:34:26Z</time>
      </trkpt>
      <trkpt lat="43.62381" lon="1.21032">
        <ele>237.169907</ele>
        <time>2013-04-21T14:34:28Z</time>
      </trkpt>
      <trkpt lat="43.62362" lon="1.21016">
        <ele>237.57048</ele>
        <time>2013-04-21T14:34:33Z</time>
      </trkpt>
      <trkpt lat="43.62329" lon="1.20989">
        <ele>238.094269</ele>
        <time>2013-04-21T14:34:42Z</time>
      </trkpt>
      <trkpt lat="43.62318" lon="1.20979">
        <ele>238.262817</ele>
        <time>2013-04-21T14:34:45Z</time>
      </trkpt>
      <trkpt lat="43.62307" lon="1.20967">
        <ele>238.543411</ele>
        <time>2013-04-21T14:34:48Z</time>
      </trkpt>
      <trkpt lat="43.62281" lon="1.20949">
        <ele>238.85437</ele>
        <time>2013-04-21T14:34:54Z</time>
      </trkpt>
      <trkpt lat="43.62254" lon="1.20918">
        <ele>239.456665</ele>
        <time>2013-04-21T14:35:03Z</time>
      </trkpt>
      <trkpt lat="43.62237" lon="1.20904">
        <ele>239.806381</ele>
        <time>2013-04-21T14:35:10Z</time>
      </trkpt>
      <trkpt lat="43.62207" lon="1.20876">
        <ele>240</ele>
        <time>2013-04-21T14:35:20Z</time>
      </trkpt>
      <trkpt lat="43.62192" lon="1.20862">
        <ele>240</ele>
        <time>2013-04-21T14:35:25Z</time>
      </trkpt>
      <trkpt lat="43.62154" lon="1.20827">
        <ele>239.352341</ele>
        <time>2013-04-21T14:35:37Z</time>
      </trkpt>
      <trkpt lat="43.62124" lon="1.20804">
        <ele>237.471176</ele>
        <time>2013-04-21T14:35:45Z</time>
      </trkpt>
      <trkpt lat="43.62109" lon="1.20792">
        <ele>236.117355</ele>
        <time>2013-04-21T14:35:50Z</time>
      </trkpt>
      <trkpt lat="43.62067" lon="1.20759">
        <ele>230.469116</ele>
        <time>2013-04-21T14:36:00Z</time>
      </trkpt>
      <trkpt lat="43.62003" lon="1.20707">
        <ele>219.179993</ele>
        <time>2013-04-21T14:36:07Z</time>
      </trkpt>
      <trkpt lat="43.61967" lon="1.20678">
        <ele>216.214172</ele>
        <time>2013-04-21T14:36:12Z</time>
      </trkpt>
      <trkpt lat="43.61929" lon="1.20647">
        <ele>216.113647</ele>
        <time>2013-04-21T14:36:21Z</time>
      </trkpt>
      <trkpt lat="43.61914" lon="1.20658">
        <ele>216.123749</ele>
        <time>2013-04-21T14:36:26Z</time>
      </trkpt>
      <trkpt lat="43.61893" lon="1.20691">
        <ele>215.413757</ele>
        <time>2013-04-21T14:36:33Z</time>
      </trkpt>
      <trkpt lat="43.61872" lon="1.2073">
        <ele>215.033463</ele>
        <time>2013-04-21T14:36:41Z</time>
      </trkpt>
      <trkpt lat="43.61847" lon="1.20731">
        <ele>215.360001</ele>
        <time>2013-04-21T14:36:52Z</time>
      </trkpt>
      <trkpt lat="43.61828" lon="1.20714">
        <ele>216.737503</ele>
        <time>2013-04-21T14:37:03Z</time>
      </trkpt>
      <trkpt lat="43.61821" lon="1.20709">
        <ele>217.228745</ele>
        <time>2013-04-21T14:37:08Z</time>
      </trkpt>
      <trkpt lat="43.61802" lon="1.20694">
        <ele>219.038498</ele>
        <time>2013-04-21T14:37:20Z</time>
      </trkpt>
      <trkpt lat="43.61797" lon="1.2069">
        <ele>219.704834</ele>
        <time>2013-04-21T14:37:23Z</time>
      </trkpt>
      <trkpt lat="43.61784" lon="1.20678">
        <ele>221.547318</ele>
        <time>2013-04-21T14:37:32Z</time>
      </trkpt>
      <trkpt lat="43.61779" lon="1.20674">
        <ele>222.364777</ele>
        <time>2013-04-21T14:37:36Z</time>
      </trkpt>
      <trkpt lat="43.61764" lon="1.20661">
        <ele>224.594055</ele>
        <time>2013-04-21T14:37:48Z</time>
      </trkpt>
      <trkpt lat="43.61746" lon="1.20646">
        <ele>227.619415</ele>
        <time>2013-04-21T14:38:00Z</time>
      </trkpt>
      <trkpt lat="43.61727" lon="1.20626">
        <ele>231.002502</ele>
        <time>2013-04-21T14:38:14Z</time>
      </trkpt>
      <trkpt lat="43.61714" lon="1.20619">
        <ele>232.647156</ele>
        <time>2013-04-21T14:38:23Z</time>
      </trkpt>
      <trkpt lat="43.61713" lon="1.20618">
        <ele>232.762146</ele>
        <time>2013-04-21T14:38:24Z</time>
      </trkpt>
      <trkpt lat="43.61699" lon="1.20607">
        <ele>233.894943</ele>
        <time>2013-04-21T14:38:32Z</time>
      </trkpt>
      <trkpt lat="43.61673" lon="1.20587">
        <ele>235.730621</ele>
        <time>2013-04-21T14:38:46Z</time>
      </trkpt>
      <trkpt lat="43.61656" lon="1.20573">
        <ele>235.449722</ele>
        <time>2013-04-21T14:38:55Z</time>
      </trkpt>
      <trkpt lat="43.61624" lon="1.20546">
        <ele>234.936249</ele>
        <time>2013-04-21T14:39:05Z</time>
      </trkpt>
      <trkpt lat="43.61607" lon="1.20534">
        <ele>234.233749</ele>
        <time>2013-04-21T14:39:09Z</time>
      </trkpt>
      <trkpt lat="43.61562" lon="1.20494">
        <ele>230.330002</ele>
        <time>2013-04-21T14:39:22Z</time>
      </trkpt>
      <trkpt lat="43.61559" lon="1.2049">
        <ele>229.910004</ele>
        <time>2013-04-21T14:39:23Z</time>
      </trkpt>
      <trkpt lat="43.61529" lon="1.20463">
        <ele>225.880005</ele>
        <time>2013-04-21T14:39:29Z</time>
      </trkpt>
      <trkpt lat="43.61455" lon="1.20405">
        <ele>214.279999</ele>
        <time>2013-04-21T14:39:39Z</time>
      </trkpt>
      <trkpt lat="43.61432" lon="1.20385">
        <ele>211.381638</ele>
        <time>2013-04-21T14:39:45Z</time>
      </trkpt>
      <trkpt lat="43.61426" lon="1.20382">
        <ele>210.720688</ele>
        <time>2013-04-21T14:39:47Z</time>
      </trkpt>
      <trkpt lat="43.6142" lon="1.20379">
        <ele>210.176285</ele>
        <time>2013-04-21T14:39:57Z</time>
      </trkpt>
      <trkpt lat="43.61406" lon="1.20379">
        <ele>208.817154</ele>
        <time>2013-04-21T14:40:10Z</time>
      </trkpt>
      <trkpt lat="43.61406" lon="1.20379">
        <ele>208.817154</ele>
        <time>2013-04-21T14:40:11Z</time>
      </trkpt>
      <trkpt lat="43.61384" lon="1.20358">
        <ele>207.982498</ele>
        <time>2013-04-21T14:40:21Z</time>
      </trkpt>
      <trkpt lat="43.61355" lon="1.20334">
        <ele>207.085587</ele>
        <time>2013-04-21T14:40:31Z</time>
      </trkpt>
      <trkpt lat="43.61324" lon="1.20304">
        <ele>207.298721</ele>
        <time>2013-04-21T14:40:41Z</time>
      </trkpt>
      <trkpt lat="43.61299" lon="1.20282">
        <ele>208.402298</ele>
        <time>2013-04-21T14:40:51Z</time>
      </trkpt>
      <trkpt lat="43.61295" lon="1.20279">
        <ele>208.662079</ele>
        <time>2013-04-21T14:40:53Z</time>
      </trkpt>
      <trkpt lat="43.61268" lon="1.20261">
        <ele>211.034744</ele>
        <time>2013-04-21T14:41:06Z</time>
      </trkpt>
      <trkpt lat="43.61251" lon="1.20246">
        <ele>213.004654</ele>
        <time>2013-04-21T14:41:15Z</time>
      </trkpt>
      <trkpt lat="43.61248" lon="1.20243">
        <ele>213.34523</ele>
        <time>2013-04-21T14:41:17Z</time>
      </trkpt>
      <trkpt lat="43.6122" lon="1.2022">
        <ele>216.920105</ele>
        <time>2013-04-21T14:41:30Z</time>
      </trkpt>
      <trkpt lat="43.61197" lon="1.20208">
        <ele>219.43187</ele>
        <time>2013-04-21T14:41:40Z</time>
      </trkpt>
      <trkpt lat="43.61173" lon="1.20187">
        <ele>222.681381</ele>
        <time>2013-04-21T14:41:52Z</time>
      </trkpt>
      <trkpt lat="43.61154" lon="1.20171">
        <ele>223.910507</ele>
        <time>2013-04-21T14:42:03Z</time>
      </trkpt>
      <trkpt lat="43.61136" lon="1.20154">
        <ele>225.393753</ele>
        <time>2013-04-21T14:42:15Z</time>
      </trkpt>
      <trkpt lat="43.61117" lon="1.20141">
        <ele>226.393082</ele>
        <time>2013-04-21T14:42:24Z</time>
      </trkpt>
      <trkpt lat="43.61111" lon="1.20134">
        <ele>226.860275</ele>
        <time>2013-04-21T14:42:28Z</time>
      </trkpt>
      <trkpt lat="43.61084" lon="1.2011">
        <ele>228.199448</ele>
        <time>2013-04-21T14:42:39Z</time>
      </trkpt>
      <trkpt lat="43.61055" lon="1.20091">
        <ele>230.414597</ele>
        <time>2013-04-21T14:42:49Z</time>
      </trkpt>
      <trkpt lat="43.61023" lon="1.20066">
        <ele>231.536255</ele>
        <time>2013-04-21T14:43:00Z</time>
      </trkpt>
      <trkpt lat="43.61001" lon="1.20043">
        <ele>231.921249</ele>
        <time>2013-04-21T14:43:09Z</time>
      </trkpt>
      <trkpt lat="43.60968" lon="1.20014">
        <ele>232.386246</ele>
        <time>2013-04-21T14:43:20Z</time>
      </trkpt>
      <trkpt lat="43.60961" lon="1.2001">
        <ele>232.453751</ele>
        <time>2013-04-21T14:43:22Z</time>
      </trkpt>
      <trkpt lat="43.60932" lon="1.20007">
        <ele>232.511246</ele>
        <time>2013-04-21T14:43:28Z</time>
      </trkpt>
      <trkpt lat="43.60886" lon="1.19968">
        <ele>233.108475</ele>
        <time>2013-04-21T14:43:41Z</time>
      </trkpt>
      <trkpt lat="43.60848" lon="1.19934">
        <ele>232.946106</ele>
        <time>2013-04-21T14:43:52Z</time>
      </trkpt>
      <trkpt lat="43.60796" lon="1.19894">
        <ele>233.039993</ele>
        <time>2013-04-21T14:44:04Z</time>
      </trkpt>
      <trkpt lat="43.60754" lon="1.19863">
        <ele>232.379379</ele>
        <time>2013-04-21T14:44:13Z</time>
      </trkpt>
      <trkpt lat="43.60742" lon="1.19854">
        <ele>231.919998</ele>
        <time>2013-04-21T14:44:15Z</time>
      </trkpt>
      <trkpt lat="43.60654" lon="1.19786">
        <ele>226.041641</ele>
        <time>2013-04-21T14:44:26Z</time>
      </trkpt>
      <trkpt lat="43.60639" lon="1.19773">
        <ele>225.709015</ele>
        <time>2013-04-21T14:44:28Z</time>
      </trkpt>
      <trkpt lat="43.60592" lon="1.19734">
        <ele>227.969376</ele>
        <time>2013-04-21T14:44:39Z</time>
      </trkpt>
      <trkpt lat="43.60557" lon="1.19706">
        <ele>229.841919</ele>
        <time>2013-04-21T14:44:53Z</time>
      </trkpt>
      <trkpt lat="43.60532" lon="1.19685">
        <ele>230.350006</ele>
        <time>2013-04-21T14:45:05Z</time>
      </trkpt>
      <trkpt lat="43.60516" lon="1.19674">
        <ele>229.970627</ele>
        <time>2013-04-21T14:45:11Z</time>
      </trkpt>
      <trkpt lat="43.60506" lon="1.19639">
        <ele>230.133133</ele>
        <time>2013-04-21T14:45:19Z</time>
      </trkpt>
      <trkpt lat="43.60507" lon="1.19637">
        <ele>230.214996</ele>
        <time>2013-04-21T14:45:20Z</time>
      </trkpt>
      <trkpt lat="43.60518" lon="1.19611">
        <ele>231.095001</ele>
        <time>2013-04-21T14:45:28Z</time>
      </trkpt>
      <trkpt lat="43.60536" lon="1.19568">
        <ele>231.889999</ele>
        <time>2013-04-21T14:45:40Z</time>
      </trkpt>
      <trkpt lat="43.60555" lon="1.1952">
        <ele>232.88562</ele>
        <time>2013-04-21T14:45:51Z</time>
      </trkpt>
      <trkpt lat="43.60559" lon="1.19506">
        <ele>233.208755</ele>
        <time>2013-04-21T14:45:54Z</time>
      </trkpt>
      <trkpt lat="43.6055" lon="1.19484">
        <ele>233.285004</ele>
        <time>2013-04-21T14:46:00Z</time>
      </trkpt>
      <trkpt lat="43.60536" lon="1.1947">
        <ele>232.895004</ele>
        <time>2013-04-21T14:46:04Z</time>
      </trkpt>
      <trkpt lat="43.60521" lon="1.19458">
        <ele>231.942505</ele>
        <time>2013-04-21T14:46:07Z</time>
      </trkpt>
      <trkpt lat="43.60496" lon="1.19435">
        <ele>230.292496</ele>
        <time>2013-04-21T14:46:11Z</time>
      </trkpt>
      <trkpt lat="43.60476" lon="1.1942">
        <ele>228.223038</ele>
        <time>2013-04-21T14:46:14Z</time>
      </trkpt>
      <trkpt lat="43.60453" lon="1.19403">
        <ele>225.277008</ele>
        <time>2013-04-21T14:46:17Z</time>
      </trkpt>
      <trkpt lat="43.60412" lon="1.19369">
        <ele>220.94014</ele>
        <time>2013-04-21T14:46:22Z</time>
      </trkpt>
      <trkpt lat="43.60345" lon="1.19315">
        <ele>219.984253</ele>
        <time>2013-04-21T14:46:31Z</time>
      </trkpt>
      <trkpt lat="43.60309" lon="1.19284">
        <ele>222.197495</ele>
        <time>2013-04-21T14:46:39Z</time>
      </trkpt>
      <trkpt lat="43.60274" lon="1.19254">
        <ele>222.931244</ele>
        <time>2013-04-21T14:46:47Z</time>
      </trkpt>
      <trkpt lat="43.60245" lon="1.1923">
        <ele>221.861176</ele>
        <time>2013-04-21T14:46:53Z</time>
      </trkpt>
      <trkpt lat="43.60231" lon="1.19216">
        <ele>220.873672</ele>
        <time>2013-04-21T14:46:56Z</time>
      </trkpt>
      <trkpt lat="43.60218" lon="1.19191">
        <ele>219.919998</ele>
        <time>2013-04-21T14:47:01Z</time>
      </trkpt>
      <trkpt lat="43.60196" lon="1.19166">
        <ele>218.945007</ele>
        <time>2013-04-21T14:47:07Z</time>
      </trkpt>
      <trkpt lat="43.60174" lon="1.19133">
        <ele>218.017776</ele>
        <time>2013-04-21T14:47:14Z</time>
      </trkpt>
      <trkpt lat="43.60142" lon="1.19111">
        <ele>219.852234</ele>
        <time>2013-04-21T14:47:22Z</time>
      </trkpt>
      <trkpt lat="43.60121" lon="1.19093">
        <ele>221.73349</ele>
        <time>2013-04-21T14:47:31Z</time>
      </trkpt>
      <trkpt lat="43.60106" lon="1.19078">
        <ele>223.515869</ele>
        <time>2013-04-21T14:47:40Z</time>
      </trkpt>
      <trkpt lat="43.60091" lon="1.19068">
        <ele>225.294647</ele>
        <time>2013-04-21T14:47:49Z</time>
      </trkpt>
      <trkpt lat="43.60088" lon="1.19067">
        <ele>225.517563</ele>
        <time>2013-04-21T14:47:50Z</time>
      </trkpt>
      <trkpt lat="43.60058" lon="1.19071">
        <ele>227.503754</ele>
        <time>2013-04-21T14:48:01Z</time>
      </trkpt>
      <trkpt lat="43.60029" lon="1.19086">
        <ele>228.715408</ele>
        <time>2013-04-21T14:48:12Z</time>
      </trkpt>
      <trkpt lat="43.59994" lon="1.19096">
        <ele>230.1875</ele>
        <time>2013-04-21T14:48:23Z</time>
      </trkpt>
      <trkpt lat="43.59987" lon="1.19097">
        <ele>230.002502</ele>
        <time>2013-04-21T14:48:25Z</time>
      </trkpt>
      <trkpt lat="43.59978" lon="1.19096">
        <ele>229.862503</ele>
        <time>2013-04-21T14:48:27Z</time>
      </trkpt>
      <trkpt lat="43.59967" lon="1.19091">
        <ele>229.949997</ele>
        <time>2013-04-21T14:48:32Z</time>
      </trkpt>
      <trkpt lat="43.59924" lon="1.19081">
        <ele>228.109772</ele>
        <time>2013-04-21T14:48:44Z</time>
      </trkpt>
      <trkpt lat="43.59919" lon="1.1908">
        <ele>227.782623</ele>
        <time>2013-04-21T14:48:45Z</time>
      </trkpt>
      <trkpt lat="43.59892" lon="1.1908">
        <ele>225.445618</ele>
        <time>2013-04-21T14:48:54Z</time>
      </trkpt>
      <trkpt lat="43.59889" lon="1.1908">
        <ele>225.213745</ele>
        <time>2013-04-21T14:48:55Z</time>
      </trkpt>
      <trkpt lat="43.59875" lon="1.19075">
        <ele>224.244995</ele>
        <time>2013-04-21T14:48:59Z</time>
      </trkpt>
      <trkpt lat="43.59866" lon="1.19071">
        <ele>223.656876</ele>
        <time>2013-04-21T14:49:01Z</time>
      </trkpt>
      <trkpt lat="43.59863" lon="1.19068">
        <ele>223.595016</ele>
        <time>2013-04-21T14:49:02Z</time>
      </trkpt>
      <trkpt lat="43.59862" lon="1.19063">
        <ele>223.764648</ele>
        <time>2013-04-21T14:49:03Z</time>
      </trkpt>
      <trkpt lat="43.59862" lon="1.19059">
        <ele>224.028503</ele>
        <time>2013-04-21T14:49:04Z</time>
      </trkpt>
      <trkpt lat="43.59863" lon="1.19055">
        <ele>224.349167</ele>
        <time>2013-04-21T14:49:05Z</time>
      </trkpt>
      <trkpt lat="43.59865" lon="1.19052">
        <ele>224.704758</ele>
        <time>2013-04-21T14:49:06Z</time>
      </trkpt>
      <trkpt lat="43.59877" lon="1.19022">
        <ele>227.136429</ele>
        <time>2013-04-21T14:49:16Z</time>
      </trkpt>
      <trkpt lat="43.59884" lon="1.19002">
        <ele>228.415421</ele>
        <time>2013-04-21T14:49:27Z</time>
      </trkpt>
      <trkpt lat="43.59893" lon="1.1898">
        <ele>229.583069</ele>
        <time>2013-04-21T14:49:39Z</time>
      </trkpt>
      <trkpt lat="43.59911" lon="1.18952">
        <ele>231.533783</ele>
        <time>2013-04-21T14:49:52Z</time>
      </trkpt>
      <trkpt lat="43.59931" lon="1.18909">
        <ele>235.359375</ele>
        <time>2013-04-21T14:50:08Z</time>
      </trkpt>
      <trkpt lat="43.5995" lon="1.18865">
        <ele>238.449997</ele>
        <time>2013-04-21T14:50:23Z</time>
      </trkpt>
      <trkpt lat="43.59972" lon="1.18814">
        <ele>240.26062</ele>
        <time>2013-04-21T14:50:38Z</time>
      </trkpt>
      <trkpt lat="43.60001" lon="1.1875">
        <ele>242.136246</ele>
        <time>2013-04-21T14:50:55Z</time>
      </trkpt>
      <trkpt lat="43.60002" lon="1.18746">
        <ele>242.200623</ele>
        <time>2013-04-21T14:50:56Z</time>
      </trkpt>
      <trkpt lat="43.59995" lon="1.18733">
        <ele>242.416245</ele>
        <time>2013-04-21T14:51:00Z</time>
      </trkpt>
      <trkpt lat="43.59924" lon="1.18678">
        <ele>241.677505</ele>
        <time>2013-04-21T14:51:17Z</time>
      </trkpt>
      <trkpt lat="43.599" lon="1.18659">
        <ele>242.291245</ele>
        <time>2013-04-21T14:51:23Z</time>
      </trkpt>
      <trkpt lat="43.59844" lon="1.18611">
        <ele>241.999374</ele>
        <time>2013-04-21T14:51:36Z</time>
      </trkpt>
      <trkpt lat="43.59784" lon="1.18561">
        <ele>241.793121</ele>
        <time>2013-04-21T14:51:49Z</time>
      </trkpt>
      <trkpt lat="43.59775" lon="1.18554">
        <ele>242.181244</ele>
        <time>2013-04-21T14:51:51Z</time>
      </trkpt>
      <trkpt lat="43.59764" lon="1.18541">
        <ele>242.783127</ele>
        <time>2013-04-21T14:51:54Z</time>
      </trkpt>
      <trkpt lat="43.5976" lon="1.18538">
        <ele>242.941193</ele>
        <time>2013-04-21T14:51:55Z</time>
      </trkpt>
      <trkpt lat="43.59755" lon="1.18534">
        <ele>243.057816</ele>
        <time>2013-04-21T14:51:56Z</time>
      </trkpt>
      <trkpt lat="43.5975" lon="1.18531">
        <ele>243.152206</ele>
        <time>2013-04-21T14:51:57Z</time>
      </trkpt>
      <trkpt lat="43.59745" lon="1.18527">
        <ele>243.225998</ele>
        <time>2013-04-21T14:51:58Z</time>
      </trkpt>
      <trkpt lat="43.59714" lon="1.18501">
        <ele>243.121872</ele>
        <time>2013-04-21T14:52:05Z</time>
      </trkpt>
      <trkpt lat="43.59711" lon="1.18495">
        <ele>243.040604</ele>
        <time>2013-04-21T14:52:06Z</time>
      </trkpt>
      <trkpt lat="43.59709" lon="1.18487">
        <ele>243.014786</ele>
        <time>2013-04-21T14:52:07Z</time>
      </trkpt>
      <trkpt lat="43.59709" lon="1.18479">
        <ele>243.068665</ele>
        <time>2013-04-21T14:52:08Z</time>
      </trkpt>
      <trkpt lat="43.59709" lon="1.18472">
        <ele>243.151505</ele>
        <time>2013-04-21T14:52:09Z</time>
      </trkpt>
      <trkpt lat="43.5971" lon="1.18464">
        <ele>243.223389</ele>
        <time>2013-04-21T14:52:10Z</time>
      </trkpt>
      <trkpt lat="43.59711" lon="1.1845">
        <ele>243.506256</ele>
        <time>2013-04-21T14:52:12Z</time>
      </trkpt>
      <trkpt lat="43.59711" lon="1.18442">
        <ele>243.684372</ele>
        <time>2013-04-21T14:52:13Z</time>
      </trkpt>
      <trkpt lat="43.59714" lon="1.18428">
        <ele>244.166245</ele>
        <time>2013-04-21T14:52:15Z</time>
      </trkpt>
      <trkpt lat="43.59726" lon="1.18397">
        <ele>245.542496</ele>
        <time>2013-04-21T14:52:22Z</time>
      </trkpt>
      <trkpt lat="43.59727" lon="1.18393">
        <ele>245.707504</ele>
        <time>2013-04-21T14:52:23Z</time>
      </trkpt>
      <trkpt lat="43.59729" lon="1.18389">
        <ele>245.938751</ele>
        <time>2013-04-21T14:52:24Z</time>
      </trkpt>
      <trkpt lat="43.59741" lon="1.18337">
        <ele>248.462494</ele>
        <time>2013-04-21T14:52:35Z</time>
      </trkpt>
      <trkpt lat="43.59747" lon="1.18298">
        <ele>249.755661</ele>
        <time>2013-04-21T14:52:43Z</time>
      </trkpt>
      <trkpt lat="43.59748" lon="1.18273">
        <ele>250.382614</ele>
        <time>2013-04-21T14:52:49Z</time>
      </trkpt>
      <trkpt lat="43.59749" lon="1.18271">
        <ele>250.472656</ele>
        <time>2013-04-21T14:52:50Z</time>
      </trkpt>
      <trkpt lat="43.5975" lon="1.18268">
        <ele>250.570343</ele>
        <time>2013-04-21T14:52:51Z</time>
      </trkpt>
      <trkpt lat="43.5975" lon="1.18264">
        <ele>250.701508</ele>
        <time>2013-04-21T14:52:52Z</time>
      </trkpt>
      <trkpt lat="43.5975" lon="1.1826">
        <ele>250.81546</ele>
        <time>2013-04-21T14:52:53Z</time>
      </trkpt>
      <trkpt lat="43.5975" lon="1.18256">
        <ele>250.949371</ele>
        <time>2013-04-21T14:52:54Z</time>
      </trkpt>
      <trkpt lat="43.5975" lon="1.18252">
        <ele>251.050613</ele>
        <time>2013-04-21T14:52:55Z</time>
      </trkpt>
      <trkpt lat="43.5975" lon="1.18249">
        <ele>251.139618</ele>
        <time>2013-04-21T14:52:56Z</time>
      </trkpt>
      <trkpt lat="43.59751" lon="1.18246">
        <ele>251.255722</ele>
        <time>2013-04-21T14:52:57Z</time>
      </trkpt>
      <trkpt lat="43.59751" lon="1.18242">
        <ele>251.362503</ele>
        <time>2013-04-21T14:52:58Z</time>
      </trkpt>
      <trkpt lat="43.59751" lon="1.18239">
        <ele>251.451996</ele>
        <time>2013-04-21T14:52:59Z</time>
      </trkpt>
      <trkpt lat="43.5975" lon="1.18236">
        <ele>251.535019</ele>
        <time>2013-04-21T14:53:00Z</time>
      </trkpt>
      <trkpt lat="43.59751" lon="1.18232">
        <ele>251.649292</ele>
        <time>2013-04-21T14:53:01Z</time>
      </trkpt>
      <trkpt lat="43.59751" lon="1.18229">
        <ele>251.777756</ele>
        <time>2013-04-21T14:53:02Z</time>
      </trkpt>
      <trkpt lat="43.59752" lon="1.18225">
        <ele>251.933395</ele>
        <time>2013-04-21T14:53:03Z</time>
      </trkpt>
      <trkpt lat="43.59753" lon="1.18221">
        <ele>252.105881</ele>
        <time>2013-04-21T14:53:04Z</time>
      </trkpt>
      <trkpt lat="43.59753" lon="1.18217">
        <ele>252.269363</ele>
        <time>2013-04-21T14:53:05Z</time>
      </trkpt>
      <trkpt lat="43.59753" lon="1.18214">
        <ele>252.355438</ele>
        <time>2013-04-21T14:53:06Z</time>
      </trkpt>
      <trkpt lat="43.59753" lon="1.1821">
        <ele>252.432602</ele>
        <time>2013-04-21T14:53:07Z</time>
      </trkpt>
      <trkpt lat="43.59753" lon="1.18207">
        <ele>252.555206</ele>
        <time>2013-04-21T14:53:08Z</time>
      </trkpt>
      <trkpt lat="43.59754" lon="1.18203">
        <ele>252.721558</ele>
        <time>2013-04-21T14:53:09Z</time>
      </trkpt>
      <trkpt lat="43.59755" lon="1.182">
        <ele>252.891586</ele>
        <time>2013-04-21T14:53:10Z</time>
      </trkpt>
      <trkpt lat="43.59758" lon="1.18194">
        <ele>253.278</ele>
        <time>2013-04-21T14:53:12Z</time>
      </trkpt>
      <trkpt lat="43.59759" lon="1.18184">
        <ele>253.715973</ele>
        <time>2013-04-21T14:53:15Z</time>
      </trkpt>
      <trkpt lat="43.5976" lon="1.18181">
        <ele>253.867493</ele>
        <time>2013-04-21T14:53:16Z</time>
      </trkpt>
      <trkpt lat="43.59759" lon="1.18178">
        <ele>253.914017</ele>
        <time>2013-04-21T14:53:17Z</time>
      </trkpt>
      <trkpt lat="43.59758" lon="1.18174">
        <ele>253.992737</ele>
        <time>2013-04-21T14:53:18Z</time>
      </trkpt>
      <trkpt lat="43.59758" lon="1.1817">
        <ele>254.078918</ele>
        <time>2013-04-21T14:53:19Z</time>
      </trkpt>
      <trkpt lat="43.59757" lon="1.18166">
        <ele>254.157135</ele>
        <time>2013-04-21T14:53:20Z</time>
      </trkpt>
      <trkpt lat="43.59757" lon="1.18163">
        <ele>254.214371</ele>
        <time>2013-04-21T14:53:21Z</time>
      </trkpt>
      <trkpt lat="43.59756" lon="1.1816">
        <ele>254.261856</ele>
        <time>2013-04-21T14:53:22Z</time>
      </trkpt>
      <trkpt lat="43.59756" lon="1.18157">
        <ele>254.323654</ele>
        <time>2013-04-21T14:53:23Z</time>
      </trkpt>
      <trkpt lat="43.59748" lon="1.18112">
        <ele>256.212494</ele>
        <time>2013-04-21T14:53:36Z</time>
      </trkpt>
      <trkpt lat="43.59747" lon="1.18108">
        <ele>256.337494</ele>
        <time>2013-04-21T14:53:37Z</time>
      </trkpt>
      <trkpt lat="43.59746" lon="1.18105">
        <ele>256.484985</ele>
        <time>2013-04-21T14:53:38Z</time>
      </trkpt>
      <trkpt lat="43.59745" lon="1.18101">
        <ele>256.63501</ele>
        <time>2013-04-21T14:53:39Z</time>
      </trkpt>
      <trkpt lat="43.59743" lon="1.18097">
        <ele>256.777496</ele>
        <time>2013-04-21T14:53:40Z</time>
      </trkpt>
      <trkpt lat="43.59742" lon="1.18093">
        <ele>256.942505</ele>
        <time>2013-04-21T14:53:41Z</time>
      </trkpt>
      <trkpt lat="43.59741" lon="1.18089">
        <ele>257.107513</ele>
        <time>2013-04-21T14:53:42Z</time>
      </trkpt>
      <trkpt lat="43.5974" lon="1.18085">
        <ele>257.287506</ele>
        <time>2013-04-21T14:53:43Z</time>
      </trkpt>
      <trkpt lat="43.59732" lon="1.18036">
        <ele>258.258759</ele>
        <time>2013-04-21T14:53:53Z</time>
      </trkpt>
      <trkpt lat="43.59734" lon="1.17992">
        <ele>260.136353</ele>
        <time>2013-04-21T14:54:04Z</time>
      </trkpt>
      <trkpt lat="43.59733" lon="1.17977">
        <ele>260.596161</ele>
        <time>2013-04-21T14:54:08Z</time>
      </trkpt>
      <trkpt lat="43.59732" lon="1.17973">
        <ele>260.699585</ele>
        <time>2013-04-21T14:54:09Z</time>
      </trkpt>
      <trkpt lat="43.59732" lon="1.17969">
        <ele>260.808258</ele>
        <time>2013-04-21T14:54:10Z</time>
      </trkpt>
      <trkpt lat="43.59732" lon="1.17966">
        <ele>260.983459</ele>
        <time>2013-04-21T14:54:11Z</time>
      </trkpt>
      <trkpt lat="43.59732" lon="1.17962">
        <ele>261.169983</ele>
        <time>2013-04-21T14:54:12Z</time>
      </trkpt>
      <trkpt lat="43.59733" lon="1.17957">
        <ele>261.49469</ele>
        <time>2013-04-21T14:54:13Z</time>
      </trkpt>
      <trkpt lat="43.59731" lon="1.17912">
        <ele>263.917969</ele>
        <time>2013-04-21T14:54:23Z</time>
      </trkpt>
      <trkpt lat="43.59731" lon="1.17904">
        <ele>264.399994</ele>
        <time>2013-04-21T14:54:25Z</time>
      </trkpt>
      <trkpt lat="43.59731" lon="1.17901">
        <ele>264.637634</ele>
        <time>2013-04-21T14:54:26Z</time>
      </trkpt>
      <trkpt lat="43.59731" lon="1.17897">
        <ele>264.825165</ele>
        <time>2013-04-21T14:54:27Z</time>
      </trkpt>
      <trkpt lat="43.59725" lon="1.17865">
        <ele>266.612518</ele>
        <time>2013-04-21T14:54:35Z</time>
      </trkpt>
      <trkpt lat="43.59725" lon="1.17861">
        <ele>266.909302</ele>
        <time>2013-04-21T14:54:36Z</time>
      </trkpt>
      <trkpt lat="43.59725" lon="1.17857">
        <ele>267.167267</ele>
        <time>2013-04-21T14:54:37Z</time>
      </trkpt>
      <trkpt lat="43.59726" lon="1.17854">
        <ele>267.46283</ele>
        <time>2013-04-21T14:54:38Z</time>
      </trkpt>
      <trkpt lat="43.59725" lon="1.1785">
        <ele>267.715027</ele>
        <time>2013-04-21T14:54:39Z</time>
      </trkpt>
      <trkpt lat="43.59725" lon="1.17846">
        <ele>268.00235</ele>
        <time>2013-04-21T14:54:40Z</time>
      </trkpt>
      <trkpt lat="43.59725" lon="1.17841">
        <ele>268.334808</ele>
        <time>2013-04-21T14:54:41Z</time>
      </trkpt>
      <trkpt lat="43.59726" lon="1.17837">
        <ele>268.664185</ele>
        <time>2013-04-21T14:54:42Z</time>
      </trkpt>
      <trkpt lat="43.59726" lon="1.17832">
        <ele>268.793182</ele>
        <time>2013-04-21T14:54:43Z</time>
      </trkpt>
      <trkpt lat="43.59727" lon="1.17828">
        <ele>268.93512</ele>
        <time>2013-04-21T14:54:44Z</time>
      </trkpt>
      <trkpt lat="43.59728" lon="1.17824">
        <ele>269.10556</ele>
        <time>2013-04-21T14:54:45Z</time>
      </trkpt>
      <trkpt lat="43.5973" lon="1.1782">
        <ele>269.281555</ele>
        <time>2013-04-21T14:54:46Z</time>
      </trkpt>
      <trkpt lat="43.59732" lon="1.17815">
        <ele>269.479309</ele>
        <time>2013-04-21T14:54:47Z</time>
      </trkpt>
      <trkpt lat="43.59733" lon="1.17802">
        <ele>269.819946</ele>
        <time>2013-04-21T14:54:50Z</time>
      </trkpt>
      <trkpt lat="43.59731" lon="1.17798">
        <ele>269.894714</ele>
        <time>2013-04-21T14:54:51Z</time>
      </trkpt>
      <trkpt lat="43.59732" lon="1.17794">
        <ele>270.007843</ele>
        <time>2013-04-21T14:54:52Z</time>
      </trkpt>
      <trkpt lat="43.59733" lon="1.17791">
        <ele>270.118439</ele>
        <time>2013-04-21T14:54:53Z</time>
      </trkpt>
      <trkpt lat="43.59734" lon="1.17788">
        <ele>270.20871</ele>
        <time>2013-04-21T14:54:54Z</time>
      </trkpt>
      <trkpt lat="43.59734" lon="1.17785">
        <ele>270.298615</ele>
        <time>2013-04-21T14:54:55Z</time>
      </trkpt>
      <trkpt lat="43.59735" lon="1.17741">
        <ele>270.87323</ele>
        <time>2013-04-21T14:55:05Z</time>
      </trkpt>
      <trkpt lat="43.59739" lon="1.17673">
        <ele>270.466431</ele>
        <time>2013-04-21T14:55:17Z</time>
      </trkpt>
      <trkpt lat="43.59741" lon="1.17667">
        <ele>270.470642</ele>
        <time>2013-04-21T14:55:18Z</time>
      </trkpt>
      <trkpt lat="43.59744" lon="1.17662">
        <ele>270.516632</ele>
        <time>2013-04-21T14:55:19Z</time>
      </trkpt>
      <trkpt lat="43.59754" lon="1.1764">
        <ele>270.834167</ele>
        <time>2013-04-21T14:55:23Z</time>
      </trkpt>
      <trkpt lat="43.59756" lon="1.17634">
        <ele>270.751862</ele>
        <time>2013-04-21T14:55:24Z</time>
      </trkpt>
      <trkpt lat="43.59758" lon="1.17628">
        <ele>270.672516</ele>
        <time>2013-04-21T14:55:25Z</time>
      </trkpt>
      <trkpt lat="43.59778" lon="1.17541">
        <ele>270.55249</ele>
        <time>2013-04-21T14:55:38Z</time>
      </trkpt>
      <trkpt lat="43.5978" lon="1.17535">
        <ele>270.61499</ele>
        <time>2013-04-21T14:55:39Z</time>
      </trkpt>
      <trkpt lat="43.59785" lon="1.17522">
        <ele>270.694885</ele>
        <time>2013-04-21T14:55:41Z</time>
      </trkpt>
      <trkpt lat="43.59787" lon="1.17516">
        <ele>270.687866</ele>
        <time>2013-04-21T14:55:42Z</time>
      </trkpt>
      <trkpt lat="43.59788" lon="1.17509">
        <ele>270.671875</ele>
        <time>2013-04-21T14:55:43Z</time>
      </trkpt>
      <trkpt lat="43.59798" lon="1.17438">
        <ele>271.417511</ele>
        <time>2013-04-21T14:55:55Z</time>
      </trkpt>
      <trkpt lat="43.59803" lon="1.17423">
        <ele>271.661865</ele>
        <time>2013-04-21T14:55:58Z</time>
      </trkpt>
      <trkpt lat="43.59813" lon="1.17405">
        <ele>271.949371</ele>
        <time>2013-04-21T14:56:02Z</time>
      </trkpt>
      <trkpt lat="43.59829" lon="1.17391">
        <ele>272</ele>
        <time>2013-04-21T14:56:07Z</time>
      </trkpt>
      <trkpt lat="43.59849" lon="1.17376">
        <ele>271.779846</ele>
        <time>2013-04-21T14:56:11Z</time>
      </trkpt>
      <trkpt lat="43.59871" lon="1.17346">
        <ele>271.858459</ele>
        <time>2013-04-21T14:56:16Z</time>
      </trkpt>
      <trkpt lat="43.59886" lon="1.17316">
        <ele>272.736237</ele>
        <time>2013-04-21T14:56:20Z</time>
      </trkpt>
      <trkpt lat="43.59891" lon="1.17301">
        <ele>273.223755</ele>
        <time>2013-04-21T14:56:22Z</time>
      </trkpt>
      <trkpt lat="43.59909" lon="1.17267">
        <ele>274.066742</ele>
        <time>2013-04-21T14:56:27Z</time>
      </trkpt>
      <trkpt lat="43.59942" lon="1.17213">
        <ele>273.98999</ele>
        <time>2013-04-21T14:56:36Z</time>
      </trkpt>
      <trkpt lat="43.59958" lon="1.17168">
        <ele>273.267487</ele>
        <time>2013-04-21T14:56:42Z</time>
      </trkpt>
      <trkpt lat="43.59964" lon="1.17154">
        <ele>273.038116</ele>
        <time>2013-04-21T14:56:44Z</time>
      </trkpt>
      <trkpt lat="43.59977" lon="1.17124">
        <ele>271.66684</ele>
        <time>2013-04-21T14:56:48Z</time>
      </trkpt>
      <trkpt lat="43.60029" lon="1.17058">
        <ele>270.417633</ele>
        <time>2013-04-21T14:57:00Z</time>
      </trkpt>
      <trkpt lat="43.60033" lon="1.17053">
        <ele>270.464935</ele>
        <time>2013-04-21T14:57:01Z</time>
      </trkpt>
      <trkpt lat="43.60051" lon="1.17042">
        <ele>271.212036</ele>
        <time>2013-04-21T14:57:05Z</time>
      </trkpt>
      <trkpt lat="43.60068" lon="1.17053">
        <ele>271.63205</ele>
        <time>2013-04-21T14:57:08Z</time>
      </trkpt>
      <trkpt lat="43.60096" lon="1.17076">
        <ele>271.309937</ele>
        <time>2013-04-21T14:57:13Z</time>
      </trkpt>
      <trkpt lat="43.60126" lon="1.17099">
        <ele>270.611237</ele>
        <time>2013-04-21T14:57:18Z</time>
      </trkpt>
      <trkpt lat="43.60131" lon="1.17099">
        <ele>270.588745</ele>
        <time>2013-04-21T14:57:20Z</time>
      </trkpt>
      <trkpt lat="43.60145" lon="1.17112">
        <ele>270.174988</ele>
        <time>2013-04-21T14:57:26Z</time>
      </trkpt>
      <trkpt lat="43.60153" lon="1.17117">
        <ele>269.984985</ele>
        <time>2013-04-21T14:57:28Z</time>
      </trkpt>
      <trkpt lat="43.60181" lon="1.17141">
        <ele>269.144104</ele>
        <time>2013-04-21T14:57:35Z</time>
      </trkpt>
      <trkpt lat="43.60196" lon="1.17153">
        <ele>268.990356</ele>
        <time>2013-04-21T14:57:38Z</time>
      </trkpt>
      <trkpt lat="43.60208" lon="1.17164">
        <ele>269.720367</ele>
        <time>2013-04-21T14:57:41Z</time>
      </trkpt>
      <trkpt lat="43.60223" lon="1.17175">
        <ele>270.93866</ele>
        <time>2013-04-21T14:57:45Z</time>
      </trkpt>
      <trkpt lat="43.60256" lon="1.17199">
        <ele>273.435638</ele>
        <time>2013-04-21T14:57:55Z</time>
      </trkpt>
      <trkpt lat="43.60293" lon="1.1723">
        <ele>275.057861</ele>
        <time>2013-04-21T14:58:07Z</time>
      </trkpt>
      <trkpt lat="43.60303" lon="1.17248">
        <ele>275.107605</ele>
        <time>2013-04-21T14:58:11Z</time>
      </trkpt>
      <trkpt lat="43.60317" lon="1.17271">
        <ele>275</ele>
        <time>2013-04-21T14:58:16Z</time>
      </trkpt>
      <trkpt lat="43.60328" lon="1.17297">
        <ele>275</ele>
        <time>2013-04-21T14:58:21Z</time>
      </trkpt>
      <trkpt lat="43.60334" lon="1.17321">
        <ele>275</ele>
        <time>2013-04-21T14:58:25Z</time>
      </trkpt>
      <trkpt lat="43.60345" lon="1.1735">
        <ele>274.9263</ele>
        <time>2013-04-21T14:58:30Z</time>
      </trkpt>
      <trkpt lat="43.60374" lon="1.17391">
        <ele>274.137512</ele>
        <time>2013-04-21T14:58:40Z</time>
      </trkpt>
      <trkpt lat="43.60372" lon="1.17415">
        <ele>274.190002</ele>
        <time>2013-04-21T14:58:44Z</time>
      </trkpt>
      <trkpt lat="43.60344" lon="1.17468">
        <ele>274.793549</ele>
        <time>2013-04-21T14:58:55Z</time>
      </trkpt>
      <trkpt lat="43.60329" lon="1.17495">
        <ele>275.114807</ele>
        <time>2013-04-21T14:59:00Z</time>
      </trkpt>
      <trkpt lat="43.60324" lon="1.17506">
        <ele>275.233276</ele>
        <time>2013-04-21T14:59:02Z</time>
      </trkpt>
      <trkpt lat="43.60308" lon="1.17551">
        <ele>275.075623</ele>
        <time>2013-04-21T14:59:11Z</time>
      </trkpt>
      <trkpt lat="43.60288" lon="1.176">
        <ele>274.644989</ele>
        <time>2013-04-21T14:59:20Z</time>
      </trkpt>
      <trkpt lat="43.60283" lon="1.1761">
        <ele>274.484985</ele>
        <time>2013-04-21T14:59:22Z</time>
      </trkpt>
      <trkpt lat="43.60293" lon="1.17641">
        <ele>273.955048</ele>
        <time>2013-04-21T14:59:28Z</time>
      </trkpt>
      <trkpt lat="43.60341" lon="1.17683">
        <ele>272.261932</ele>
        <time>2013-04-21T14:59:39Z</time>
      </trkpt>
      <trkpt lat="43.60363" lon="1.17703">
        <ele>271.959991</ele>
        <time>2013-04-21T14:59:44Z</time>
      </trkpt>
      <trkpt lat="43.60372" lon="1.17707">
        <ele>271.882507</ele>
        <time>2013-04-21T14:59:46Z</time>
      </trkpt>
      <trkpt lat="43.60389" lon="1.1772">
        <ele>271.707672</ele>
        <time>2013-04-21T14:59:50Z</time>
      </trkpt>
      <trkpt lat="43.60401" lon="1.17733">
        <ele>271.661377</ele>
        <time>2013-04-21T14:59:53Z</time>
      </trkpt>
      <trkpt lat="43.60411" lon="1.1775">
        <ele>271.679138</ele>
        <time>2013-04-21T14:59:56Z</time>
      </trkpt>
      <trkpt lat="43.6044" lon="1.17768">
        <ele>271.881866</ele>
        <time>2013-04-21T15:00:02Z</time>
      </trkpt>
      <trkpt lat="43.60459" lon="1.17791">
        <ele>271.502502</ele>
        <time>2013-04-21T15:00:09Z</time>
      </trkpt>
      <trkpt lat="43.60469" lon="1.1781">
        <ele>271.184998</ele>
        <time>2013-04-21T15:00:13Z</time>
      </trkpt>
      <trkpt lat="43.60487" lon="1.17839">
        <ele>271.075714</ele>
        <time>2013-04-21T15:00:19Z</time>
      </trkpt>
      <trkpt lat="43.60497" lon="1.1787">
        <ele>271.37793</ele>
        <time>2013-04-21T15:00:24Z</time>
      </trkpt>
      <trkpt lat="43.60515" lon="1.17912">
        <ele>271.882507</ele>
        <time>2013-04-21T15:00:31Z</time>
      </trkpt>
      <trkpt lat="43.6053" lon="1.17959">
        <ele>272.391327</ele>
        <time>2013-04-21T15:00:38Z</time>
      </trkpt>
      <trkpt lat="43.60541" lon="1.17981">
        <ele>272.778809</ele>
        <time>2013-04-21T15:00:42Z</time>
      </trkpt>
      <trkpt lat="43.60548" lon="1.17999">
        <ele>272.95694</ele>
        <time>2013-04-21T15:00:45Z</time>
      </trkpt>
      <trkpt lat="43.60556" lon="1.18033">
        <ele>273.105377</ele>
        <time>2013-04-21T15:00:50Z</time>
      </trkpt>
      <trkpt lat="43.60558" lon="1.18047">
        <ele>273.134125</ele>
        <time>2013-04-21T15:00:52Z</time>
      </trkpt>
      <trkpt lat="43.60574" lon="1.18148">
        <ele>271.519257</ele>
        <time>2013-04-21T15:01:05Z</time>
      </trkpt>
      <trkpt lat="43.60586" lon="1.18169">
        <ele>270.71994</ele>
        <time>2013-04-21T15:01:11Z</time>
      </trkpt>
      <trkpt lat="43.6059" lon="1.18158">
        <ele>270.819794</ele>
        <time>2013-04-21T15:01:13Z</time>
      </trkpt>
      <trkpt lat="43.60606" lon="1.18119">
        <ele>271.306885</ele>
        <time>2013-04-21T15:01:20Z</time>
      </trkpt>
      <trkpt lat="43.60622" lon="1.18133">
        <ele>270.4375</ele>
        <time>2013-04-21T15:01:26Z</time>
      </trkpt>
      <trkpt lat="43.60623" lon="1.18139">
        <ele>270.188751</ele>
        <time>2013-04-21T15:01:27Z</time>
      </trkpt>
      <trkpt lat="43.60635" lon="1.18173">
        <ele>268.567505</ele>
        <time>2013-04-21T15:01:32Z</time>
      </trkpt>
      <trkpt lat="43.60642" lon="1.18225">
        <ele>266.584991</ele>
        <time>2013-04-21T15:01:40Z</time>
      </trkpt>
      <trkpt lat="43.60643" lon="1.18231">
        <ele>266.377502</ele>
        <time>2013-04-21T15:01:41Z</time>
      </trkpt>
      <trkpt lat="43.60641" lon="1.18267">
        <ele>265.079376</ele>
        <time>2013-04-21T15:01:46Z</time>
      </trkpt>
      <trkpt lat="43.6064" lon="1.18291">
        <ele>263.911865</ele>
        <time>2013-04-21T15:01:49Z</time>
      </trkpt>
      <trkpt lat="43.60635" lon="1.18329">
        <ele>262.05249</ele>
        <time>2013-04-21T15:01:53Z</time>
      </trkpt>
      <trkpt lat="43.60633" lon="1.1838">
        <ele>258.953125</ele>
        <time>2013-04-21T15:01:58Z</time>
      </trkpt>
      <trkpt lat="43.60635" lon="1.18397">
        <ele>258.077515</ele>
        <time>2013-04-21T15:02:00Z</time>
      </trkpt>
      <trkpt lat="43.60629" lon="1.18422">
        <ele>257.12439</ele>
        <time>2013-04-21T15:02:03Z</time>
      </trkpt>
      <trkpt lat="43.60609" lon="1.18493">
        <ele>253.744995</ele>
        <time>2013-04-21T15:02:11Z</time>
      </trkpt>
      <trkpt lat="43.60607" lon="1.18523">
        <ele>251.814056</ele>
        <time>2013-04-21T15:02:14Z</time>
      </trkpt>
      <trkpt lat="43.60616" lon="1.18537">
        <ele>250.552628</ele>
        <time>2013-04-21T15:02:19Z</time>
      </trkpt>
      <trkpt lat="43.60656" lon="1.18515">
        <ele>251.074997</ele>
        <time>2013-04-21T15:02:30Z</time>
      </trkpt>
      <trkpt lat="43.6069" lon="1.18496">
        <ele>251.472504</ele>
        <time>2013-04-21T15:02:40Z</time>
      </trkpt>
      <trkpt lat="43.607" lon="1.18489">
        <ele>251.533752</ele>
        <time>2013-04-21T15:02:44Z</time>
      </trkpt>
      <trkpt lat="43.60714" lon="1.18485">
        <ele>251.395004</ele>
        <time>2013-04-21T15:02:48Z</time>
      </trkpt>
      <trkpt lat="43.60743" lon="1.18467">
        <ele>251.594376</ele>
        <time>2013-04-21T15:02:58Z</time>
      </trkpt>
      <trkpt lat="43.60766" lon="1.18459">
        <ele>251.77562</ele>
        <time>2013-04-21T15:03:05Z</time>
      </trkpt>
      <trkpt lat="43.60795" lon="1.18441">
        <ele>252.639999</ele>
        <time>2013-04-21T15:03:17Z</time>
      </trkpt>
      <trkpt lat="43.6083" lon="1.18425">
        <ele>253.39563</ele>
        <time>2013-04-21T15:03:28Z</time>
      </trkpt>
      <trkpt lat="43.60847" lon="1.18415">
        <ele>253.86438</ele>
        <time>2013-04-21T15:03:38Z</time>
      </trkpt>
      <trkpt lat="43.60867" lon="1.18403">
        <ele>254.402496</ele>
        <time>2013-04-21T15:03:52Z</time>
      </trkpt>
      <trkpt lat="43.60869" lon="1.18402">
        <ele>254.464371</ele>
        <time>2013-04-21T15:03:53Z</time>
      </trkpt>
      <trkpt lat="43.60879" lon="1.18397">
        <ele>254.6875</ele>
        <time>2013-04-21T15:03:58Z</time>
      </trkpt>
      <trkpt lat="43.60902" lon="1.18383">
        <ele>255.750626</ele>
        <time>2013-04-21T15:04:10Z</time>
      </trkpt>
      <trkpt lat="43.60923" lon="1.1837">
        <ele>256.799988</ele>
        <time>2013-04-21T15:04:20Z</time>
      </trkpt>
      <trkpt lat="43.60944" lon="1.18363">
        <ele>257.8461</ele>
        <time>2013-04-21T15:04:29Z</time>
      </trkpt>
      <trkpt lat="43.60974" lon="1.18342">
        <ele>259.809814</ele>
        <time>2013-04-21T15:04:44Z</time>
      </trkpt>
      <trkpt lat="43.60995" lon="1.1833">
        <ele>260.671265</ele>
        <time>2013-04-21T15:04:54Z</time>
      </trkpt>
      <trkpt lat="43.61023" lon="1.18317">
        <ele>261.543762</ele>
        <time>2013-04-21T15:05:04Z</time>
      </trkpt>
      <trkpt lat="43.61057" lon="1.18299">
        <ele>261.322113</ele>
        <time>2013-04-21T15:05:14Z</time>
      </trkpt>
      <trkpt lat="43.61092" lon="1.18278">
        <ele>261.574768</ele>
        <time>2013-04-21T15:05:24Z</time>
      </trkpt>
      <trkpt lat="43.61128" lon="1.18257">
        <ele>261.201324</ele>
        <time>2013-04-21T15:05:33Z</time>
      </trkpt>
      <trkpt lat="43.61172" lon="1.18229">
        <ele>260.362488</ele>
        <time>2013-04-21T15:05:44Z</time>
      </trkpt>
      <trkpt lat="43.61219" lon="1.18204">
        <ele>258.646881</ele>
        <time>2013-04-21T15:05:55Z</time>
      </trkpt>
      <trkpt lat="43.6124" lon="1.18193">
        <ele>257.892487</ele>
        <time>2013-04-21T15:06:01Z</time>
      </trkpt>
      <trkpt lat="43.61259" lon="1.18193">
        <ele>257.129486</ele>
        <time>2013-04-21T15:06:05Z</time>
      </trkpt>
      <trkpt lat="43.61267" lon="1.18199">
        <ele>256.774017</ele>
        <time>2013-04-21T15:06:07Z</time>
      </trkpt>
      <trkpt lat="43.61279" lon="1.1821">
        <ele>256.285553</ele>
        <time>2013-04-21T15:06:10Z</time>
      </trkpt>
      <trkpt lat="43.61298" lon="1.18223">
        <ele>255.787506</ele>
        <time>2013-04-21T15:06:14Z</time>
      </trkpt>
      <trkpt lat="43.6132" lon="1.18234">
        <ele>255.292496</ele>
        <time>2013-04-21T15:06:19Z</time>
      </trkpt>
      <trkpt lat="43.61337" lon="1.1823">
        <ele>254.907501</ele>
        <time>2013-04-21T15:06:24Z</time>
      </trkpt>
      <trkpt lat="43.61368" lon="1.18221">
        <ele>254.212494</ele>
        <time>2013-04-21T15:06:33Z</time>
      </trkpt>
      <trkpt lat="43.61406" lon="1.1821">
        <ele>253.738831</ele>
        <time>2013-04-21T15:06:42Z</time>
      </trkpt>
      <trkpt lat="43.61434" lon="1.18204">
        <ele>253.243744</ele>
        <time>2013-04-21T15:06:48Z</time>
      </trkpt>
      <trkpt lat="43.61487" lon="1.18189">
        <ele>251.029419</ele>
        <time>2013-04-21T15:06:59Z</time>
      </trkpt>
      <trkpt lat="43.61522" lon="1.18183">
        <ele>249.3125</ele>
        <time>2013-04-21T15:07:07Z</time>
      </trkpt>
      <trkpt lat="43.61548" lon="1.18178">
        <ele>247.837494</ele>
        <time>2013-04-21T15:07:14Z</time>
      </trkpt>
      <trkpt lat="43.61566" lon="1.1818">
        <ele>246.794998</ele>
        <time>2013-04-21T15:07:18Z</time>
      </trkpt>
      <trkpt lat="43.61574" lon="1.18182">
        <ele>246.252502</ele>
        <time>2013-04-21T15:07:20Z</time>
      </trkpt>
      <trkpt lat="43.61588" lon="1.18193">
        <ele>245.729996</ele>
        <time>2013-04-21T15:07:23Z</time>
      </trkpt>
      <trkpt lat="43.61606" lon="1.18203">
        <ele>244.816895</ele>
        <time>2013-04-21T15:07:27Z</time>
      </trkpt>
      <trkpt lat="43.61628" lon="1.18204">
        <ele>242.764999</ele>
        <time>2013-04-21T15:07:33Z</time>
      </trkpt>
      <trkpt lat="43.61655" lon="1.18214">
        <ele>241.011887</ele>
        <time>2013-04-21T15:07:41Z</time>
      </trkpt>
      <trkpt lat="43.61658" lon="1.18217">
        <ele>240.890503</ele>
        <time>2013-04-21T15:07:42Z</time>
      </trkpt>
      <trkpt lat="43.6167" lon="1.18229">
        <ele>240.379166</ele>
        <time>2013-04-21T15:07:45Z</time>
      </trkpt>
      <trkpt lat="43.61686" lon="1.18259">
        <ele>240.302658</ele>
        <time>2013-04-21T15:07:52Z</time>
      </trkpt>
      <trkpt lat="43.61686" lon="1.18262">
        <ele>240.482666</ele>
        <time>2013-04-21T15:07:53Z</time>
      </trkpt>
      <trkpt lat="43.61691" lon="1.18283">
        <ele>240.83989</ele>
        <time>2013-04-21T15:08:00Z</time>
      </trkpt>
      <trkpt lat="43.61701" lon="1.18303">
        <ele>240.655624</ele>
        <time>2013-04-21T15:08:06Z</time>
      </trkpt>
      <trkpt lat="43.6171" lon="1.18318">
        <ele>240.441879</ele>
        <time>2013-04-21T15:08:09Z</time>
      </trkpt>
      <trkpt lat="43.61724" lon="1.18344">
        <ele>240.198746</ele>
        <time>2013-04-21T15:08:13Z</time>
      </trkpt>
      <trkpt lat="43.61749" lon="1.18388">
        <ele>239.418121</ele>
        <time>2013-04-21T15:08:22Z</time>
      </trkpt>
      <trkpt lat="43.61765" lon="1.18407">
        <ele>238.197495</ele>
        <time>2013-04-21T15:08:28Z</time>
      </trkpt>
      <trkpt lat="43.61784" lon="1.18425">
        <ele>236.969635</ele>
        <time>2013-04-21T15:08:35Z</time>
      </trkpt>
      <trkpt lat="43.61805" lon="1.18449">
        <ele>236.611557</ele>
        <time>2013-04-21T15:08:42Z</time>
      </trkpt>
      <trkpt lat="43.61819" lon="1.18463">
        <ele>235.831528</ele>
        <time>2013-04-21T15:08:46Z</time>
      </trkpt>
      <trkpt lat="43.61828" lon="1.18495">
        <ele>236.632507</ele>
        <time>2013-04-21T15:08:54Z</time>
      </trkpt>
      <trkpt lat="43.61841" lon="1.18513">
        <ele>236.121872</ele>
        <time>2013-04-21T15:08:59Z</time>
      </trkpt>
      <trkpt lat="43.61857" lon="1.18539">
        <ele>234.53688</ele>
        <time>2013-04-21T15:09:06Z</time>
      </trkpt>
      <trkpt lat="43.61868" lon="1.18559">
        <ele>233.512497</ele>
        <time>2013-04-21T15:09:11Z</time>
      </trkpt>
      <trkpt lat="43.61883" lon="1.18589">
        <ele>233.142441</ele>
        <time>2013-04-21T15:09:18Z</time>
      </trkpt>
      <trkpt lat="43.61896" lon="1.18634">
        <ele>232.955444</ele>
        <time>2013-04-21T15:09:26Z</time>
      </trkpt>
      <trkpt lat="43.61896" lon="1.18659">
        <ele>233.527573</ele>
        <time>2013-04-21T15:09:31Z</time>
      </trkpt>
      <trkpt lat="43.61903" lon="1.18684">
        <ele>232.677994</ele>
        <time>2013-04-21T15:09:37Z</time>
      </trkpt>
      <trkpt lat="43.61922" lon="1.18698">
        <ele>230.099655</ele>
        <time>2013-04-21T15:09:43Z</time>
      </trkpt>
      <trkpt lat="43.61922" lon="1.18718">
        <ele>230.121826</ele>
        <time>2013-04-21T15:09:47Z</time>
      </trkpt>
      <trkpt lat="43.61918" lon="1.18725">
        <ele>230.668121</ele>
        <time>2013-04-21T15:09:49Z</time>
      </trkpt>
      <trkpt lat="43.61923" lon="1.1877">
        <ele>230.040451</ele>
        <time>2013-04-21T15:09:57Z</time>
      </trkpt>
      <trkpt lat="43.61923" lon="1.18776">
        <ele>230.065125</ele>
        <time>2013-04-21T15:09:58Z</time>
      </trkpt>
      <trkpt lat="43.61923" lon="1.18794">
        <ele>229.656799</ele>
        <time>2013-04-21T15:10:01Z</time>
      </trkpt>
      <trkpt lat="43.61922" lon="1.18813">
        <ele>229.141174</ele>
        <time>2013-04-21T15:10:04Z</time>
      </trkpt>
      <trkpt lat="43.61921" lon="1.18831">
        <ele>228.693832</ele>
        <time>2013-04-21T15:10:07Z</time>
      </trkpt>
      <trkpt lat="43.6191" lon="1.1888">
        <ele>228.335892</ele>
        <time>2013-04-21T15:10:16Z</time>
      </trkpt>
      <trkpt lat="43.61894" lon="1.18926">
        <ele>227.729095</ele>
        <time>2013-04-21T15:10:26Z</time>
      </trkpt>
      <trkpt lat="43.61878" lon="1.18976">
        <ele>226.094803</ele>
        <time>2013-04-21T15:10:37Z</time>
      </trkpt>
      <trkpt lat="43.61866" lon="1.19006">
        <ele>226.290024</ele>
        <time>2013-04-21T15:10:44Z</time>
      </trkpt>
      <trkpt lat="43.61857" lon="1.19023">
        <ele>226.289124</ele>
        <time>2013-04-21T15:10:52Z</time>
      </trkpt>
      <trkpt lat="43.61857" lon="1.19027">
        <ele>226.203506</ele>
        <time>2013-04-21T15:10:57Z</time>
      </trkpt>
      <trkpt lat="43.6186" lon="1.1903">
        <ele>225.950256</ele>
        <time>2013-04-21T15:11:02Z</time>
      </trkpt>
      <trkpt lat="43.61872" lon="1.1903">
        <ele>225.420578</ele>
        <time>2013-04-21T15:11:10Z</time>
      </trkpt>
      <trkpt lat="43.61888" lon="1.19072">
        <ele>225.561386</ele>
        <time>2013-04-21T15:11:21Z</time>
      </trkpt>
      <trkpt lat="43.6189" lon="1.19078">
        <ele>225.697342</ele>
        <time>2013-04-21T15:11:22Z</time>
      </trkpt>
      <trkpt lat="43.61901" lon="1.19106">
        <ele>227.169998</ele>
        <time>2013-04-21T15:11:28Z</time>
      </trkpt>
      <trkpt lat="43.61913" lon="1.19099">
        <ele>228.001251</ele>
        <time>2013-04-21T15:11:33Z</time>
      </trkpt>
      <trkpt lat="43.61935" lon="1.19052">
        <ele>229.393753</ele>
        <time>2013-04-21T15:11:47Z</time>
      </trkpt>
      <trkpt lat="43.61969" lon="1.19003">
        <ele>232.008301</ele>
        <time>2013-04-21T15:12:03Z</time>
      </trkpt>
      <trkpt lat="43.62019" lon="1.18986">
        <ele>234.859207</ele>
        <time>2013-04-21T15:12:19Z</time>
      </trkpt>
      <trkpt lat="43.62061" lon="1.18992">
        <ele>237.468124</ele>
        <time>2013-04-21T15:12:33Z</time>
      </trkpt>
      <trkpt lat="43.62099" lon="1.18991">
        <ele>239.133743</ele>
        <time>2013-04-21T15:12:45Z</time>
      </trkpt>
      <trkpt lat="43.62149" lon="1.18972">
        <ele>240.125626</ele>
        <time>2013-04-21T15:13:01Z</time>
      </trkpt>
      <trkpt lat="43.62193" lon="1.18944">
        <ele>242.244995</ele>
        <time>2013-04-21T15:13:15Z</time>
      </trkpt>
      <trkpt lat="43.62232" lon="1.18905">
        <ele>243.74437</ele>
        <time>2013-04-21T15:13:28Z</time>
      </trkpt>
      <trkpt lat="43.62269" lon="1.1886">
        <ele>245.916245</ele>
        <time>2013-04-21T15:13:41Z</time>
      </trkpt>
      <trkpt lat="43.62302" lon="1.18823">
        <ele>247.296982</ele>
        <time>2013-04-21T15:13:52Z</time>
      </trkpt>
      <trkpt lat="43.62338" lon="1.1878">
        <ele>249.029999</ele>
        <time>2013-04-21T15:14:05Z</time>
      </trkpt>
      <trkpt lat="43.62369" lon="1.18731">
        <ele>251.239914</ele>
        <time>2013-04-21T15:14:19Z</time>
      </trkpt>
      <trkpt lat="43.62398" lon="1.18699">
        <ele>252.301727</ele>
        <time>2013-04-21T15:14:30Z</time>
      </trkpt>
      <trkpt lat="43.62457" lon="1.18651">
        <ele>252.101517</ele>
        <time>2013-04-21T15:14:47Z</time>
      </trkpt>
      <trkpt lat="43.62515" lon="1.186">
        <ele>251.067505</ele>
        <time>2013-04-21T15:15:02Z</time>
      </trkpt>
      <trkpt lat="43.62571" lon="1.18532">
        <ele>250.742493</ele>
        <time>2013-04-21T15:15:17Z</time>
      </trkpt>
      <trkpt lat="43.6265" lon="1.18457">
        <ele>248.751984</ele>
        <time>2013-04-21T15:15:34Z</time>
      </trkpt>
      <trkpt lat="43.6278" lon="1.18389">
        <ele>246.781097</ele>
        <time>2013-04-21T15:15:55Z</time>
      </trkpt>
      <trkpt lat="43.62856" lon="1.18319">
        <ele>245.817505</ele>
        <time>2013-04-21T15:16:10Z</time>
      </trkpt>
      <trkpt lat="43.62939" lon="1.18246">
        <ele>245.335007</ele>
        <time>2013-04-21T15:16:27Z</time>
      </trkpt>
      <trkpt lat="43.6302" lon="1.1818">
        <ele>246.57843</ele>
        <time>2013-04-21T15:16:47Z</time>
      </trkpt>
      <trkpt lat="43.63087" lon="1.18132">
        <ele>248.250107</ele>
        <time>2013-04-21T15:17:04Z</time>
      </trkpt>
      <trkpt lat="43.63184" lon="1.18105">
        <ele>246.759171</ele>
        <time>2013-04-21T15:17:24Z</time>
      </trkpt>
      <trkpt lat="43.63278" lon="1.18083">
        <ele>243.728119</ele>
        <time>2013-04-21T15:17:43Z</time>
      </trkpt>
      <trkpt lat="43.63305" lon="1.18077">
        <ele>243.138077</ele>
        <time>2013-04-21T15:17:48Z</time>
      </trkpt>
      <trkpt lat="43.63322" lon="1.18085">
        <ele>243.476868</ele>
        <time>2013-04-21T15:17:51Z</time>
      </trkpt>
      <trkpt lat="43.63396" lon="1.18107">
        <ele>245.513748</ele>
        <time>2013-04-21T15:18:04Z</time>
      </trkpt>
      <trkpt lat="43.63433" lon="1.18117">
        <ele>246.485626</ele>
        <time>2013-04-21T15:18:11Z</time>
      </trkpt>
      <trkpt lat="43.63448" lon="1.18132">
        <ele>246.929367</ele>
        <time>2013-04-21T15:18:15Z</time>
      </trkpt>
      <trkpt lat="43.63456" lon="1.1815">
        <ele>246.168747</ele>
        <time>2013-04-21T15:18:18Z</time>
      </trkpt>
      <trkpt lat="43.63473" lon="1.18165">
        <ele>245.302505</ele>
        <time>2013-04-21T15:18:22Z</time>
      </trkpt>
      <trkpt lat="43.6351" lon="1.18182">
        <ele>243.659531</ele>
        <time>2013-04-21T15:18:29Z</time>
      </trkpt>
      <trkpt lat="43.63529" lon="1.18227">
        <ele>242.591873</ele>
        <time>2013-04-21T15:18:35Z</time>
      </trkpt>
      <trkpt lat="43.63528" lon="1.18408">
        <ele>238.521255</ele>
        <time>2013-04-21T15:18:52Z</time>
      </trkpt>
      <trkpt lat="43.63535" lon="1.1864">
        <ele>236.763748</ele>
        <time>2013-04-21T15:19:13Z</time>
      </trkpt>
      <trkpt lat="43.63537" lon="1.18733">
        <ele>235.334</ele>
        <time>2013-04-21T15:19:22Z</time>
      </trkpt>
      <trkpt lat="43.63558" lon="1.18766">
        <ele>234.897675</ele>
        <time>2013-04-21T15:19:27Z</time>
      </trkpt>
      <trkpt lat="43.6366" lon="1.18785">
        <ele>234.140991</ele>
        <time>2013-04-21T15:19:42Z</time>
      </trkpt>
      <trkpt lat="43.63763" lon="1.18805">
        <ele>233.108307</ele>
        <time>2013-04-21T15:19:58Z</time>
      </trkpt>
      <trkpt lat="43.63808" lon="1.18827">
        <ele>233</ele>
        <time>2013-04-21T15:20:05Z</time>
      </trkpt>
      <trkpt lat="43.63899" lon="1.18918">
        <ele>232.0121</ele>
        <time>2013-04-21T15:20:21Z</time>
      </trkpt>
      <trkpt lat="43.63992" lon="1.18979">
        <ele>232</ele>
        <time>2013-04-21T15:20:38Z</time>
      </trkpt>
      <trkpt lat="43.64094" lon="1.19024">
        <ele>232.391251</ele>
        <time>2013-04-21T15:20:56Z</time>
      </trkpt>
      <trkpt lat="43.64195" lon="1.1907">
        <ele>231.018051</ele>
        <time>2013-04-21T15:21:13Z</time>
      </trkpt>
      <trkpt lat="43.64209" lon="1.19075">
        <ele>230.706696</ele>
        <time>2013-04-21T15:21:15Z</time>
      </trkpt>
      <trkpt lat="43.64232" lon="1.19093">
        <ele>230.412582</ele>
        <time>2013-04-21T15:21:19Z</time>
      </trkpt>
      <trkpt lat="43.64258" lon="1.19104">
        <ele>230.045578</ele>
        <time>2013-04-21T15:21:23Z</time>
      </trkpt>
      <trkpt lat="43.64331" lon="1.19109">
        <ele>231.515259</ele>
        <time>2013-04-21T15:21:34Z</time>
      </trkpt>
      <trkpt lat="43.64405" lon="1.19097">
        <ele>232.013245</ele>
        <time>2013-04-21T15:21:49Z</time>
      </trkpt>
      <trkpt lat="43.64495" lon="1.19078">
        <ele>231.903137</ele>
        <time>2013-04-21T15:22:10Z</time>
      </trkpt>
      <trkpt lat="43.64595" lon="1.19065">
        <ele>231</ele>
        <time>2013-04-21T15:22:29Z</time>
      </trkpt>
      <trkpt lat="43.64716" lon="1.1903">
        <ele>231</ele>
        <time>2013-04-21T15:22:50Z</time>
      </trkpt>
      <trkpt lat="43.64815" lon="1.19007">
        <ele>230.712494</ele>
        <time>2013-04-21T15:23:07Z</time>
      </trkpt>
      <trkpt lat="43.6492" lon="1.18997">
        <ele>228.384995</ele>
        <time>2013-04-21T15:23:23Z</time>
      </trkpt>
      <trkpt lat="43.64942" lon="1.18998">
        <ele>227.782318</ele>
        <time>2013-04-21T15:23:26Z</time>
      </trkpt>
      <trkpt lat="43.64968" lon="1.18983">
        <ele>226.963333</ele>
        <time>2013-04-21T15:23:30Z</time>
      </trkpt>
      <trkpt lat="43.64983" lon="1.18974">
        <ele>226.752686</ele>
        <time>2013-04-21T15:23:33Z</time>
      </trkpt>
      <trkpt lat="43.65056" lon="1.18972">
        <ele>223.821075</ele>
        <time>2013-04-21T15:23:48Z</time>
      </trkpt>
      <trkpt lat="43.65084" lon="1.18971">
        <ele>223.631607</ele>
        <time>2013-04-21T15:23:53Z</time>
      </trkpt>
      <trkpt lat="43.65152" lon="1.18981">
        <ele>223.652496</ele>
        <time>2013-04-21T15:24:05Z</time>
      </trkpt>
      <trkpt lat="43.65166" lon="1.18987">
        <ele>223.295731</ele>
        <time>2013-04-21T15:24:08Z</time>
      </trkpt>
      <trkpt lat="43.65226" lon="1.19006">
        <ele>222.830002</ele>
        <time>2013-04-21T15:24:21Z</time>
      </trkpt>
      <trkpt lat="43.65299" lon="1.19013">
        <ele>220.065628</ele>
        <time>2013-04-21T15:24:32Z</time>
      </trkpt>
      <trkpt lat="43.65409" lon="1.19044">
        <ele>208.120163</ele>
        <time>2013-04-21T15:24:42Z</time>
      </trkpt>
      <trkpt lat="43.6559" lon="1.19096">
        <ele>188.970322</ele>
        <time>2013-04-21T15:24:54Z</time>
      </trkpt>
      <trkpt lat="43.65668" lon="1.19131">
        <ele>181.470673</ele>
        <time>2013-04-21T15:25:01Z</time>
      </trkpt>
      <trkpt lat="43.65688" lon="1.19116">
        <ele>181.73822</ele>
        <time>2013-04-21T15:25:06Z</time>
      </trkpt>
    </trkseg>
  </trk>
</gpx>